<?xml version="1.0" encoding="UTF-8" standalone="no" ?>
<gpx xmlns="http://www.topografix.com/GPX/1/1" xmlns:xsi="http://www.w3.org/2001/XMLSchema-instance" xsi:schemaLocation="http://www.topografix.com/GPX/1/1 http://www.topografix.com/GPX/1/1/gpx.xsd" version="1.1" creator="VisuGPX - https://www.visugpx.com">
  <metadata>
    <name>Rando des chênes autour de Samatan</name>
    <desc><![CDATA[Belle randonnée d\'une quinzaine de kilomètres aux alentours de Samatan dans le Gers.]]></desc>
  </metadata>
  <trk>
    <name><![CDATA[Samatan 2]]></name>
    <trkseg>
      <trkpt lat="43.48973" lon="0.93188">
        <ele>165.25</ele>
        <time>2015-05-21T08:12:51Z</time>
      </trkpt>
      <trkpt lat="43.48973" lon="0.93188">
        <ele>165.25</ele>
        <time>2015-05-21T08:12:52Z</time>
      </trkpt>
      <trkpt lat="43.4896" lon="0.93196">
        <ele>164.86</ele>
        <time>2015-05-21T08:13:11Z</time>
      </trkpt>
      <trkpt lat="43.48948" lon="0.93207">
        <ele>164.59</ele>
        <time>2015-05-21T08:13:28Z</time>
      </trkpt>
      <trkpt lat="43.48945" lon="0.93219">
        <ele>164.47</ele>
        <time>2015-05-21T08:13:38Z</time>
      </trkpt>
      <trkpt lat="43.48934" lon="0.93248">
        <ele>164.77</ele>
        <time>2015-05-21T08:13:56Z</time>
      </trkpt>
      <trkpt lat="43.48929" lon="0.93257">
        <ele>164.83</ele>
        <time>2015-05-21T08:14:04Z</time>
      </trkpt>
      <trkpt lat="43.48923" lon="0.93277">
        <ele>164.66</ele>
        <time>2015-05-21T08:14:20Z</time>
      </trkpt>
      <trkpt lat="43.48916" lon="0.93297">
        <ele>164.75</ele>
        <time>2015-05-21T08:14:37Z</time>
      </trkpt>
      <trkpt lat="43.48915" lon="0.93321">
        <ele>164.83</ele>
        <time>2015-05-21T08:14:53Z</time>
      </trkpt>
      <trkpt lat="43.48915" lon="0.93324">
        <ele>164.84</ele>
        <time>2015-05-21T08:14:55Z</time>
      </trkpt>
      <trkpt lat="43.4892" lon="0.93346">
        <ele>164.72</ele>
        <time>2015-05-21T08:15:11Z</time>
      </trkpt>
      <trkpt lat="43.48916" lon="0.93362">
        <ele>165.03</ele>
        <time>2015-05-21T08:15:27Z</time>
      </trkpt>
      <trkpt lat="43.48909" lon="0.93366">
        <ele>165.29</ele>
        <time>2015-05-21T08:15:34Z</time>
      </trkpt>
      <trkpt lat="43.48895" lon="0.93374">
        <ele>165.15</ele>
        <time>2015-05-21T08:15:49Z</time>
      </trkpt>
      <trkpt lat="43.48881" lon="0.93379">
        <ele>164.51</ele>
        <time>2015-05-21T08:16:03Z</time>
      </trkpt>
      <trkpt lat="43.48862" lon="0.93387">
        <ele>164.68</ele>
        <time>2015-05-21T08:16:22Z</time>
      </trkpt>
      <trkpt lat="43.48845" lon="0.93389">
        <ele>164.35</ele>
        <time>2015-05-21T08:16:39Z</time>
      </trkpt>
      <trkpt lat="43.48826" lon="0.93394">
        <ele>164.24</ele>
        <time>2015-05-21T08:16:57Z</time>
      </trkpt>
      <trkpt lat="43.48809" lon="0.934">
        <ele>164.18</ele>
        <time>2015-05-21T08:17:16Z</time>
      </trkpt>
      <trkpt lat="43.48797" lon="0.93403">
        <ele>164.06</ele>
        <time>2015-05-21T08:17:27Z</time>
      </trkpt>
      <trkpt lat="43.48782" lon="0.93387">
        <ele>163.63</ele>
        <time>2015-05-21T08:17:44Z</time>
      </trkpt>
      <trkpt lat="43.48779" lon="0.93383">
        <ele>163.37</ele>
        <time>2015-05-21T08:17:51Z</time>
      </trkpt>
      <trkpt lat="43.48772" lon="0.93366">
        <ele>162.59</ele>
        <time>2015-05-21T08:18:06Z</time>
      </trkpt>
      <trkpt lat="43.48769" lon="0.93357">
        <ele>162.41</ele>
        <time>2015-05-21T08:18:14Z</time>
      </trkpt>
      <trkpt lat="43.48763" lon="0.93339">
        <ele>162.52</ele>
        <time>2015-05-21T08:18:27Z</time>
      </trkpt>
      <trkpt lat="43.48756" lon="0.93316">
        <ele>162.4</ele>
        <time>2015-05-21T08:18:43Z</time>
      </trkpt>
      <trkpt lat="43.48748" lon="0.93292">
        <ele>162.37</ele>
        <time>2015-05-21T08:18:59Z</time>
      </trkpt>
      <trkpt lat="43.48739" lon="0.93268">
        <ele>162.61</ele>
        <time>2015-05-21T08:19:15Z</time>
      </trkpt>
      <trkpt lat="43.48731" lon="0.93245">
        <ele>162.51</ele>
        <time>2015-05-21T08:19:31Z</time>
      </trkpt>
      <trkpt lat="43.48725" lon="0.93226">
        <ele>162.49</ele>
        <time>2015-05-21T08:19:46Z</time>
      </trkpt>
      <trkpt lat="43.48715" lon="0.93202">
        <ele>162.14</ele>
        <time>2015-05-21T08:20:04Z</time>
      </trkpt>
      <trkpt lat="43.48707" lon="0.93181">
        <ele>162.28</ele>
        <time>2015-05-21T08:20:18Z</time>
      </trkpt>
      <trkpt lat="43.48694" lon="0.93158">
        <ele>162.19</ele>
        <time>2015-05-21T08:20:35Z</time>
      </trkpt>
      <trkpt lat="43.4868" lon="0.93142">
        <ele>162.35</ele>
        <time>2015-05-21T08:20:50Z</time>
      </trkpt>
      <trkpt lat="43.48669" lon="0.93128">
        <ele>162.45</ele>
        <time>2015-05-21T08:21:04Z</time>
      </trkpt>
      <trkpt lat="43.4866" lon="0.93119">
        <ele>162.33</ele>
        <time>2015-05-21T08:21:20Z</time>
      </trkpt>
      <trkpt lat="43.48652" lon="0.93111">
        <ele>162.68</ele>
        <time>2015-05-21T08:21:34Z</time>
      </trkpt>
      <trkpt lat="43.48646" lon="0.93105">
        <ele>162.7</ele>
        <time>2015-05-21T08:21:41Z</time>
      </trkpt>
      <trkpt lat="43.4863" lon="0.93094">
        <ele>162.29</ele>
        <time>2015-05-21T08:21:57Z</time>
      </trkpt>
      <trkpt lat="43.48616" lon="0.93083">
        <ele>162.29</ele>
        <time>2015-05-21T08:22:11Z</time>
      </trkpt>
      <trkpt lat="43.48602" lon="0.93075">
        <ele>162.38</ele>
        <time>2015-05-21T08:22:27Z</time>
      </trkpt>
      <trkpt lat="43.48601" lon="0.93074">
        <ele>162.38</ele>
        <time>2015-05-21T08:22:28Z</time>
      </trkpt>
      <trkpt lat="43.48598" lon="0.93072">
        <ele>162.38</ele>
        <time>2015-05-21T08:22:31Z</time>
      </trkpt>
      <trkpt lat="43.48594" lon="0.93069">
        <ele>162.28</ele>
        <time>2015-05-21T08:22:35Z</time>
      </trkpt>
      <trkpt lat="43.48577" lon="0.93058">
        <ele>162.73</ele>
        <time>2015-05-21T08:22:52Z</time>
      </trkpt>
      <trkpt lat="43.48557" lon="0.93048">
        <ele>162.64</ele>
        <time>2015-05-21T08:23:09Z</time>
      </trkpt>
      <trkpt lat="43.48542" lon="0.93038">
        <ele>162.27</ele>
        <time>2015-05-21T08:23:24Z</time>
      </trkpt>
      <trkpt lat="43.48531" lon="0.93028">
        <ele>162.11</ele>
        <time>2015-05-21T08:23:36Z</time>
      </trkpt>
      <trkpt lat="43.48514" lon="0.93005">
        <ele>161.98</ele>
        <time>2015-05-21T08:23:55Z</time>
      </trkpt>
      <trkpt lat="43.485" lon="0.9298">
        <ele>162.19</ele>
        <time>2015-05-21T08:24:14Z</time>
      </trkpt>
      <trkpt lat="43.48488" lon="0.92958">
        <ele>162.47</ele>
        <time>2015-05-21T08:24:31Z</time>
      </trkpt>
      <trkpt lat="43.48478" lon="0.92937">
        <ele>162.13</ele>
        <time>2015-05-21T08:24:47Z</time>
      </trkpt>
      <trkpt lat="43.48468" lon="0.92918">
        <ele>162.22</ele>
        <time>2015-05-21T08:25:03Z</time>
      </trkpt>
      <trkpt lat="43.48457" lon="0.92897">
        <ele>162.13</ele>
        <time>2015-05-21T08:25:20Z</time>
      </trkpt>
      <trkpt lat="43.48447" lon="0.92879">
        <ele>162.11</ele>
        <time>2015-05-21T08:25:35Z</time>
      </trkpt>
      <trkpt lat="43.48436" lon="0.92856">
        <ele>162.48</ele>
        <time>2015-05-21T08:25:51Z</time>
      </trkpt>
      <trkpt lat="43.48426" lon="0.92835">
        <ele>162.24</ele>
        <time>2015-05-21T08:26:07Z</time>
      </trkpt>
      <trkpt lat="43.48414" lon="0.9281">
        <ele>162.14</ele>
        <time>2015-05-21T08:26:26Z</time>
      </trkpt>
      <trkpt lat="43.48401" lon="0.92791">
        <ele>162.81</ele>
        <time>2015-05-21T08:26:43Z</time>
      </trkpt>
      <trkpt lat="43.48391" lon="0.92777">
        <ele>162.62</ele>
        <time>2015-05-21T08:26:56Z</time>
      </trkpt>
      <trkpt lat="43.48381" lon="0.92763">
        <ele>162.82</ele>
        <time>2015-05-21T08:27:10Z</time>
      </trkpt>
      <trkpt lat="43.4837" lon="0.92751">
        <ele>163.01</ele>
        <time>2015-05-21T08:27:23Z</time>
      </trkpt>
      <trkpt lat="43.48358" lon="0.92741">
        <ele>163.42</ele>
        <time>2015-05-21T08:27:37Z</time>
      </trkpt>
      <trkpt lat="43.48351" lon="0.92733">
        <ele>163.82</ele>
        <time>2015-05-21T08:27:46Z</time>
      </trkpt>
      <trkpt lat="43.48346" lon="0.92729">
        <ele>163.83</ele>
        <time>2015-05-21T08:27:52Z</time>
      </trkpt>
      <trkpt lat="43.48344" lon="0.92727">
        <ele>163.73</ele>
        <time>2015-05-21T08:27:54Z</time>
      </trkpt>
      <trkpt lat="43.48327" lon="0.92711">
        <ele>163.22</ele>
        <time>2015-05-21T08:28:10Z</time>
      </trkpt>
      <trkpt lat="43.48313" lon="0.92698">
        <ele>163.45</ele>
        <time>2015-05-21T08:28:25Z</time>
      </trkpt>
      <trkpt lat="43.48301" lon="0.92688">
        <ele>163.52</ele>
        <time>2015-05-21T08:28:37Z</time>
      </trkpt>
      <trkpt lat="43.483" lon="0.92687">
        <ele>163.48</ele>
        <time>2015-05-21T08:28:39Z</time>
      </trkpt>
      <trkpt lat="43.48284" lon="0.92675">
        <ele>163.39</ele>
        <time>2015-05-21T08:28:55Z</time>
      </trkpt>
      <trkpt lat="43.48271" lon="0.92663">
        <ele>163.55</ele>
        <time>2015-05-21T08:29:08Z</time>
      </trkpt>
      <trkpt lat="43.48255" lon="0.92653">
        <ele>163.46</ele>
        <time>2015-05-21T08:29:23Z</time>
      </trkpt>
      <trkpt lat="43.48247" lon="0.92647">
        <ele>163.78</ele>
        <time>2015-05-21T08:29:30Z</time>
      </trkpt>
      <trkpt lat="43.48229" lon="0.92634">
        <ele>163.48</ele>
        <time>2015-05-21T08:29:49Z</time>
      </trkpt>
      <trkpt lat="43.48222" lon="0.92628">
        <ele>163.23</ele>
        <time>2015-05-21T08:30:05Z</time>
      </trkpt>
      <trkpt lat="43.48219" lon="0.92625">
        <ele>163.26</ele>
        <time>2015-05-21T08:30:13Z</time>
      </trkpt>
      <trkpt lat="43.48216" lon="0.92623">
        <ele>163.21</ele>
        <time>2015-05-21T08:30:16Z</time>
      </trkpt>
      <trkpt lat="43.48212" lon="0.92618">
        <ele>163.13</ele>
        <time>2015-05-21T08:30:21Z</time>
      </trkpt>
      <trkpt lat="43.48204" lon="0.92604">
        <ele>163.32</ele>
        <time>2015-05-21T08:30:38Z</time>
      </trkpt>
      <trkpt lat="43.48205" lon="0.92602">
        <ele>163.21</ele>
        <time>2015-05-21T08:31:02Z</time>
      </trkpt>
      <trkpt lat="43.48205" lon="0.92602">
        <ele>163.59</ele>
        <time>2015-05-21T08:31:26Z</time>
      </trkpt>
      <trkpt lat="43.48204" lon="0.92604">
        <ele>163.48</ele>
        <time>2015-05-21T08:31:53Z</time>
      </trkpt>
      <trkpt lat="43.48206" lon="0.92604">
        <ele>163.57</ele>
        <time>2015-05-21T08:32:23Z</time>
      </trkpt>
      <trkpt lat="43.48204" lon="0.92603">
        <ele>163.29</ele>
        <time>2015-05-21T08:32:50Z</time>
      </trkpt>
      <trkpt lat="43.48206" lon="0.92604">
        <ele>163.39</ele>
        <time>2015-05-21T08:33:10Z</time>
      </trkpt>
      <trkpt lat="43.48208" lon="0.92608">
        <ele>163.39</ele>
        <time>2015-05-21T08:33:13Z</time>
      </trkpt>
      <trkpt lat="43.48222" lon="0.92625">
        <ele>163.38</ele>
        <time>2015-05-21T08:33:30Z</time>
      </trkpt>
      <trkpt lat="43.48229" lon="0.92631">
        <ele>163.48</ele>
        <time>2015-05-21T08:33:37Z</time>
      </trkpt>
      <trkpt lat="43.48243" lon="0.92644">
        <ele>163.65</ele>
        <time>2015-05-21T08:33:52Z</time>
      </trkpt>
      <trkpt lat="43.48258" lon="0.92656">
        <ele>163.39</ele>
        <time>2015-05-21T08:34:05Z</time>
      </trkpt>
      <trkpt lat="43.4827" lon="0.92667">
        <ele>163.3</ele>
        <time>2015-05-21T08:34:19Z</time>
      </trkpt>
      <trkpt lat="43.48276" lon="0.92672">
        <ele>163.3</ele>
        <time>2015-05-21T08:34:26Z</time>
      </trkpt>
      <trkpt lat="43.48281" lon="0.92676">
        <ele>163.37</ele>
        <time>2015-05-21T08:34:30Z</time>
      </trkpt>
      <trkpt lat="43.48289" lon="0.92682">
        <ele>163.72</ele>
        <time>2015-05-21T08:34:37Z</time>
      </trkpt>
      <trkpt lat="43.48303" lon="0.92693">
        <ele>163.53</ele>
        <time>2015-05-21T08:34:51Z</time>
      </trkpt>
      <trkpt lat="43.48318" lon="0.92706">
        <ele>163.52</ele>
        <time>2015-05-21T08:35:05Z</time>
      </trkpt>
      <trkpt lat="43.48322" lon="0.92709">
        <ele>163.37</ele>
        <time>2015-05-21T08:35:22Z</time>
      </trkpt>
      <trkpt lat="43.48328" lon="0.9271">
        <ele>163.66</ele>
        <time>2015-05-21T08:35:47Z</time>
      </trkpt>
      <trkpt lat="43.48335" lon="0.92716">
        <ele>163.28</ele>
        <time>2015-05-21T08:35:58Z</time>
      </trkpt>
      <trkpt lat="43.48345" lon="0.92726">
        <ele>163.13</ele>
        <time>2015-05-21T08:36:11Z</time>
      </trkpt>
      <trkpt lat="43.48354" lon="0.92738">
        <ele>164.02</ele>
        <time>2015-05-21T08:36:27Z</time>
      </trkpt>
      <trkpt lat="43.48357" lon="0.92744">
        <ele>164.45</ele>
        <time>2015-05-21T08:36:48Z</time>
      </trkpt>
      <trkpt lat="43.48359" lon="0.92738">
        <ele>164.57</ele>
        <time>2015-05-21T08:37:11Z</time>
      </trkpt>
      <trkpt lat="43.48354" lon="0.92733">
        <ele>164.29</ele>
        <time>2015-05-21T08:37:32Z</time>
      </trkpt>
      <trkpt lat="43.4834" lon="0.9272">
        <ele>163.84</ele>
        <time>2015-05-21T08:37:48Z</time>
      </trkpt>
      <trkpt lat="43.48327" lon="0.92708">
        <ele>163.47</ele>
        <time>2015-05-21T08:38:02Z</time>
      </trkpt>
      <trkpt lat="43.48323" lon="0.92705">
        <ele>163.44</ele>
        <time>2015-05-21T08:38:07Z</time>
      </trkpt>
      <trkpt lat="43.48319" lon="0.92702">
        <ele>163.39</ele>
        <time>2015-05-21T08:38:11Z</time>
      </trkpt>
      <trkpt lat="43.48308" lon="0.92695">
        <ele>163.61</ele>
        <time>2015-05-21T08:38:22Z</time>
      </trkpt>
      <trkpt lat="43.48301" lon="0.9269">
        <ele>163.77</ele>
        <time>2015-05-21T08:38:29Z</time>
      </trkpt>
      <trkpt lat="43.48283" lon="0.92684">
        <ele>163.07</ele>
        <time>2015-05-21T08:38:44Z</time>
      </trkpt>
      <trkpt lat="43.48268" lon="0.92668">
        <ele>163.16</ele>
        <time>2015-05-21T08:38:59Z</time>
      </trkpt>
      <trkpt lat="43.48255" lon="0.92655">
        <ele>163.06</ele>
        <time>2015-05-21T08:39:13Z</time>
      </trkpt>
      <trkpt lat="43.4824" lon="0.92645">
        <ele>163.28</ele>
        <time>2015-05-21T08:39:28Z</time>
      </trkpt>
      <trkpt lat="43.48237" lon="0.92643">
        <ele>163.28</ele>
        <time>2015-05-21T08:39:31Z</time>
      </trkpt>
      <trkpt lat="43.48234" lon="0.92642">
        <ele>163.12</ele>
        <time>2015-05-21T08:39:34Z</time>
      </trkpt>
      <trkpt lat="43.48221" lon="0.92636">
        <ele>163.26</ele>
        <time>2015-05-21T08:39:48Z</time>
      </trkpt>
      <trkpt lat="43.48218" lon="0.92633">
        <ele>163.14</ele>
        <time>2015-05-21T08:39:51Z</time>
      </trkpt>
      <trkpt lat="43.48202" lon="0.92615">
        <ele>163.38</ele>
        <time>2015-05-21T08:40:09Z</time>
      </trkpt>
      <trkpt lat="43.48194" lon="0.92593">
        <ele>163.71</ele>
        <time>2015-05-21T08:40:23Z</time>
      </trkpt>
      <trkpt lat="43.48185" lon="0.92568">
        <ele>163.67</ele>
        <time>2015-05-21T08:40:38Z</time>
      </trkpt>
      <trkpt lat="43.48177" lon="0.92546">
        <ele>163.45</ele>
        <time>2015-05-21T08:40:51Z</time>
      </trkpt>
      <trkpt lat="43.48168" lon="0.92523">
        <ele>163.62</ele>
        <time>2015-05-21T08:41:07Z</time>
      </trkpt>
      <trkpt lat="43.48158" lon="0.92498">
        <ele>163.89</ele>
        <time>2015-05-21T08:41:23Z</time>
      </trkpt>
      <trkpt lat="43.48152" lon="0.92473">
        <ele>164.19</ele>
        <time>2015-05-21T08:41:38Z</time>
      </trkpt>
      <trkpt lat="43.4815" lon="0.92465">
        <ele>164.1</ele>
        <time>2015-05-21T08:41:43Z</time>
      </trkpt>
      <trkpt lat="43.48149" lon="0.92462">
        <ele>164.01</ele>
        <time>2015-05-21T08:41:46Z</time>
      </trkpt>
      <trkpt lat="43.48144" lon="0.92453">
        <ele>163.65</ele>
        <time>2015-05-21T08:42:02Z</time>
      </trkpt>
      <trkpt lat="43.48143" lon="0.92453">
        <ele>163.13</ele>
        <time>2015-05-21T08:42:19Z</time>
      </trkpt>
      <trkpt lat="43.48132" lon="0.92457">
        <ele>162.77</ele>
        <time>2015-05-21T08:42:36Z</time>
      </trkpt>
      <trkpt lat="43.48124" lon="0.92461">
        <ele>163.15</ele>
        <time>2015-05-21T08:42:46Z</time>
      </trkpt>
      <trkpt lat="43.48107" lon="0.92478">
        <ele>163.84</ele>
        <time>2015-05-21T08:43:04Z</time>
      </trkpt>
      <trkpt lat="43.4809" lon="0.92493">
        <ele>163.57</ele>
        <time>2015-05-21T08:43:21Z</time>
      </trkpt>
      <trkpt lat="43.48074" lon="0.92508">
        <ele>163.58</ele>
        <time>2015-05-21T08:43:38Z</time>
      </trkpt>
      <trkpt lat="43.48058" lon="0.92524">
        <ele>163.89</ele>
        <time>2015-05-21T08:43:55Z</time>
      </trkpt>
      <trkpt lat="43.48042" lon="0.9254">
        <ele>164</ele>
        <time>2015-05-21T08:44:13Z</time>
      </trkpt>
      <trkpt lat="43.48031" lon="0.92555">
        <ele>163.94</ele>
        <time>2015-05-21T08:44:28Z</time>
      </trkpt>
      <trkpt lat="43.48023" lon="0.92564">
        <ele>164.76</ele>
        <time>2015-05-21T08:44:48Z</time>
      </trkpt>
      <trkpt lat="43.48021" lon="0.92566">
        <ele>165.08</ele>
        <time>2015-05-21T08:45:13Z</time>
      </trkpt>
      <trkpt lat="43.4802" lon="0.92567">
        <ele>164.86</ele>
        <time>2015-05-21T08:45:43Z</time>
      </trkpt>
      <trkpt lat="43.48021" lon="0.92562">
        <ele>164.68</ele>
        <time>2015-05-21T08:46:10Z</time>
      </trkpt>
      <trkpt lat="43.48021" lon="0.92563">
        <ele>164.75</ele>
        <time>2015-05-21T08:46:36Z</time>
      </trkpt>
      <trkpt lat="43.48018" lon="0.92571">
        <ele>164.83</ele>
        <time>2015-05-21T08:47:01Z</time>
      </trkpt>
      <trkpt lat="43.48031" lon="0.92594">
        <ele>164.64</ele>
        <time>2015-05-21T08:47:23Z</time>
      </trkpt>
      <trkpt lat="43.48042" lon="0.92618">
        <ele>164.92</ele>
        <time>2015-05-21T08:47:45Z</time>
      </trkpt>
      <trkpt lat="43.48056" lon="0.92637">
        <ele>164.72</ele>
        <time>2015-05-21T08:47:59Z</time>
      </trkpt>
      <trkpt lat="43.4807" lon="0.92653">
        <ele>164.78</ele>
        <time>2015-05-21T08:48:12Z</time>
      </trkpt>
      <trkpt lat="43.48081" lon="0.92672">
        <ele>164.93</ele>
        <time>2015-05-21T08:48:30Z</time>
      </trkpt>
      <trkpt lat="43.48097" lon="0.92692">
        <ele>164.74</ele>
        <time>2015-05-21T08:48:48Z</time>
      </trkpt>
      <trkpt lat="43.48118" lon="0.92714">
        <ele>164.9</ele>
        <time>2015-05-21T08:49:06Z</time>
      </trkpt>
      <trkpt lat="43.4813" lon="0.92727">
        <ele>164.71</ele>
        <time>2015-05-21T08:49:19Z</time>
      </trkpt>
      <trkpt lat="43.48145" lon="0.92747">
        <ele>164.86</ele>
        <time>2015-05-21T08:49:39Z</time>
      </trkpt>
      <trkpt lat="43.48156" lon="0.92766">
        <ele>164.77</ele>
        <time>2015-05-21T08:49:59Z</time>
      </trkpt>
      <trkpt lat="43.48178" lon="0.9279">
        <ele>164.82</ele>
        <time>2015-05-21T08:50:20Z</time>
      </trkpt>
      <trkpt lat="43.48179" lon="0.92791">
        <ele>164.83</ele>
        <time>2015-05-21T08:50:21Z</time>
      </trkpt>
      <trkpt lat="43.48194" lon="0.92811">
        <ele>164.66</ele>
        <time>2015-05-21T08:50:39Z</time>
      </trkpt>
      <trkpt lat="43.48206" lon="0.92831">
        <ele>164.83</ele>
        <time>2015-05-21T08:50:58Z</time>
      </trkpt>
      <trkpt lat="43.48221" lon="0.92855">
        <ele>164.7</ele>
        <time>2015-05-21T08:51:18Z</time>
      </trkpt>
      <trkpt lat="43.4823" lon="0.92862">
        <ele>164.95</ele>
        <time>2015-05-21T08:51:32Z</time>
      </trkpt>
      <trkpt lat="43.48232" lon="0.92863">
        <ele>164.9</ele>
        <time>2015-05-21T08:51:36Z</time>
      </trkpt>
      <trkpt lat="43.48241" lon="0.92868">
        <ele>164.78</ele>
        <time>2015-05-21T08:51:40Z</time>
      </trkpt>
      <trkpt lat="43.48258" lon="0.9288">
        <ele>164.64</ele>
        <time>2015-05-21T08:51:49Z</time>
      </trkpt>
      <trkpt lat="43.4827" lon="0.92895">
        <ele>164.78</ele>
        <time>2015-05-21T08:52:02Z</time>
      </trkpt>
      <trkpt lat="43.48269" lon="0.92904">
        <ele>164.48</ele>
        <time>2015-05-21T08:52:24Z</time>
      </trkpt>
      <trkpt lat="43.48265" lon="0.92908">
        <ele>164.5</ele>
        <time>2015-05-21T08:52:48Z</time>
      </trkpt>
      <trkpt lat="43.48261" lon="0.92914">
        <ele>164.5</ele>
        <time>2015-05-21T08:53:15Z</time>
      </trkpt>
      <trkpt lat="43.48251" lon="0.92933">
        <ele>163.8</ele>
        <time>2015-05-21T08:53:32Z</time>
      </trkpt>
      <trkpt lat="43.48238" lon="0.92947">
        <ele>163.85</ele>
        <time>2015-05-21T08:53:47Z</time>
      </trkpt>
      <trkpt lat="43.48216" lon="0.92956">
        <ele>163.84</ele>
        <time>2015-05-21T08:54:05Z</time>
      </trkpt>
      <trkpt lat="43.48197" lon="0.92956">
        <ele>163.67</ele>
        <time>2015-05-21T08:54:21Z</time>
      </trkpt>
      <trkpt lat="43.48172" lon="0.92953">
        <ele>163.69</ele>
        <time>2015-05-21T08:54:40Z</time>
      </trkpt>
      <trkpt lat="43.48151" lon="0.92944">
        <ele>163.82</ele>
        <time>2015-05-21T08:54:57Z</time>
      </trkpt>
      <trkpt lat="43.4813" lon="0.92936">
        <ele>163.83</ele>
        <time>2015-05-21T08:55:13Z</time>
      </trkpt>
      <trkpt lat="43.48109" lon="0.92927">
        <ele>163.24</ele>
        <time>2015-05-21T08:55:30Z</time>
      </trkpt>
      <trkpt lat="43.48085" lon="0.92916">
        <ele>163.86</ele>
        <time>2015-05-21T08:55:49Z</time>
      </trkpt>
      <trkpt lat="43.48066" lon="0.92916">
        <ele>163.86</ele>
        <time>2015-05-21T08:56:05Z</time>
      </trkpt>
      <trkpt lat="43.48044" lon="0.92919">
        <ele>164.58</ele>
        <time>2015-05-21T08:56:24Z</time>
      </trkpt>
      <trkpt lat="43.48023" lon="0.92926">
        <ele>165.01</ele>
        <time>2015-05-21T08:56:43Z</time>
      </trkpt>
      <trkpt lat="43.48002" lon="0.92931">
        <ele>165.16</ele>
        <time>2015-05-21T08:57:01Z</time>
      </trkpt>
      <trkpt lat="43.47977" lon="0.92943">
        <ele>165.47</ele>
        <time>2015-05-21T08:57:17Z</time>
      </trkpt>
      <trkpt lat="43.47955" lon="0.92942">
        <ele>165.41</ele>
        <time>2015-05-21T08:57:33Z</time>
      </trkpt>
      <trkpt lat="43.47933" lon="0.92937">
        <ele>165.29</ele>
        <time>2015-05-21T08:57:50Z</time>
      </trkpt>
      <trkpt lat="43.47911" lon="0.92925">
        <ele>165.37</ele>
        <time>2015-05-21T08:58:09Z</time>
      </trkpt>
      <trkpt lat="43.4789" lon="0.92911">
        <ele>165.98</ele>
        <time>2015-05-21T08:58:29Z</time>
      </trkpt>
      <trkpt lat="43.47871" lon="0.92897">
        <ele>166.28</ele>
        <time>2015-05-21T08:58:46Z</time>
      </trkpt>
      <trkpt lat="43.4785" lon="0.92889">
        <ele>165.57</ele>
        <time>2015-05-21T08:59:05Z</time>
      </trkpt>
      <trkpt lat="43.47843" lon="0.92888">
        <ele>165.42</ele>
        <time>2015-05-21T08:59:11Z</time>
      </trkpt>
      <trkpt lat="43.4784" lon="0.92888">
        <ele>165.4</ele>
        <time>2015-05-21T08:59:14Z</time>
      </trkpt>
      <trkpt lat="43.47818" lon="0.92891">
        <ele>166.1</ele>
        <time>2015-05-21T08:59:30Z</time>
      </trkpt>
      <trkpt lat="43.47792" lon="0.92898">
        <ele>166.89</ele>
        <time>2015-05-21T08:59:51Z</time>
      </trkpt>
      <trkpt lat="43.47767" lon="0.929">
        <ele>167.26</ele>
        <time>2015-05-21T09:00:10Z</time>
      </trkpt>
      <trkpt lat="43.47745" lon="0.92901">
        <ele>167.64</ele>
        <time>2015-05-21T09:00:29Z</time>
      </trkpt>
      <trkpt lat="43.47725" lon="0.92906">
        <ele>168.07</ele>
        <time>2015-05-21T09:00:46Z</time>
      </trkpt>
      <trkpt lat="43.47705" lon="0.9291">
        <ele>168.3</ele>
        <time>2015-05-21T09:01:02Z</time>
      </trkpt>
      <trkpt lat="43.4768" lon="0.92913">
        <ele>169.18</ele>
        <time>2015-05-21T09:01:21Z</time>
      </trkpt>
      <trkpt lat="43.47658" lon="0.92917">
        <ele>168.86</ele>
        <time>2015-05-21T09:01:40Z</time>
      </trkpt>
      <trkpt lat="43.47638" lon="0.92923">
        <ele>169.57</ele>
        <time>2015-05-21T09:01:57Z</time>
      </trkpt>
      <trkpt lat="43.4762" lon="0.92927">
        <ele>169.33</ele>
        <time>2015-05-21T09:02:14Z</time>
      </trkpt>
      <trkpt lat="43.47594" lon="0.9292">
        <ele>170.18</ele>
        <time>2015-05-21T09:02:33Z</time>
      </trkpt>
      <trkpt lat="43.4757" lon="0.92919">
        <ele>170.42</ele>
        <time>2015-05-21T09:02:52Z</time>
      </trkpt>
      <trkpt lat="43.47547" lon="0.92918">
        <ele>171.26</ele>
        <time>2015-05-21T09:03:10Z</time>
      </trkpt>
      <trkpt lat="43.47525" lon="0.92916">
        <ele>170.94</ele>
        <time>2015-05-21T09:03:27Z</time>
      </trkpt>
      <trkpt lat="43.47503" lon="0.92915">
        <ele>171.37</ele>
        <time>2015-05-21T09:03:45Z</time>
      </trkpt>
      <trkpt lat="43.4748" lon="0.92914">
        <ele>172.44</ele>
        <time>2015-05-21T09:04:04Z</time>
      </trkpt>
      <trkpt lat="43.47462" lon="0.92913">
        <ele>173.22</ele>
        <time>2015-05-21T09:04:20Z</time>
      </trkpt>
      <trkpt lat="43.47446" lon="0.92912">
        <ele>173.53</ele>
        <time>2015-05-21T09:04:34Z</time>
      </trkpt>
      <trkpt lat="43.47424" lon="0.92913">
        <ele>174.17</ele>
        <time>2015-05-21T09:04:50Z</time>
      </trkpt>
      <trkpt lat="43.47401" lon="0.92912">
        <ele>175.1</ele>
        <time>2015-05-21T09:05:08Z</time>
      </trkpt>
      <trkpt lat="43.47377" lon="0.92911">
        <ele>176.03</ele>
        <time>2015-05-21T09:05:27Z</time>
      </trkpt>
      <trkpt lat="43.47354" lon="0.9291">
        <ele>176.4</ele>
        <time>2015-05-21T09:05:46Z</time>
      </trkpt>
      <trkpt lat="43.47332" lon="0.92908">
        <ele>176.98</ele>
        <time>2015-05-21T09:06:04Z</time>
      </trkpt>
      <trkpt lat="43.47308" lon="0.92907">
        <ele>177.28</ele>
        <time>2015-05-21T09:06:24Z</time>
      </trkpt>
      <trkpt lat="43.47289" lon="0.92908">
        <ele>178.06</ele>
        <time>2015-05-21T09:06:41Z</time>
      </trkpt>
      <trkpt lat="43.4727" lon="0.92912">
        <ele>178.23</ele>
        <time>2015-05-21T09:06:57Z</time>
      </trkpt>
      <trkpt lat="43.47267" lon="0.92913">
        <ele>179.18</ele>
        <time>2015-05-21T09:07:17Z</time>
      </trkpt>
      <trkpt lat="43.47266" lon="0.92909">
        <ele>179.04</ele>
        <time>2015-05-21T09:07:51Z</time>
      </trkpt>
      <trkpt lat="43.47267" lon="0.92909">
        <ele>179.39</ele>
        <time>2015-05-21T09:08:20Z</time>
      </trkpt>
      <trkpt lat="43.47266" lon="0.92907">
        <ele>179.28</ele>
        <time>2015-05-21T09:08:42Z</time>
      </trkpt>
      <trkpt lat="43.47264" lon="0.92906">
        <ele>179.34</ele>
        <time>2015-05-21T09:09:09Z</time>
      </trkpt>
      <trkpt lat="43.47265" lon="0.92905">
        <ele>179.26</ele>
        <time>2015-05-21T09:09:42Z</time>
      </trkpt>
      <trkpt lat="43.47265" lon="0.92904">
        <ele>178.91</ele>
        <time>2015-05-21T09:10:12Z</time>
      </trkpt>
      <trkpt lat="43.47264" lon="0.92906">
        <ele>179.45</ele>
        <time>2015-05-21T09:10:47Z</time>
      </trkpt>
      <trkpt lat="43.47259" lon="0.92906">
        <ele>179.7</ele>
        <time>2015-05-21T09:11:04Z</time>
      </trkpt>
      <trkpt lat="43.47258" lon="0.92913">
        <ele>179.69</ele>
        <time>2015-05-21T09:11:09Z</time>
      </trkpt>
      <trkpt lat="43.47261" lon="0.92944">
        <ele>180.54</ele>
        <time>2015-05-21T09:11:29Z</time>
      </trkpt>
      <trkpt lat="43.47263" lon="0.92961">
        <ele>181.78</ele>
        <time>2015-05-21T09:11:47Z</time>
      </trkpt>
      <trkpt lat="43.47264" lon="0.92972">
        <ele>181.82</ele>
        <time>2015-05-21T09:12:09Z</time>
      </trkpt>
      <trkpt lat="43.47264" lon="0.92975">
        <ele>182.15</ele>
        <time>2015-05-21T09:12:14Z</time>
      </trkpt>
      <trkpt lat="43.47265" lon="0.9298">
        <ele>182.3</ele>
        <time>2015-05-21T09:12:18Z</time>
      </trkpt>
      <trkpt lat="43.47267" lon="0.9301">
        <ele>182.99</ele>
        <time>2015-05-21T09:12:38Z</time>
      </trkpt>
      <trkpt lat="43.47269" lon="0.93017">
        <ele>183.23</ele>
        <time>2015-05-21T09:12:43Z</time>
      </trkpt>
      <trkpt lat="43.47273" lon="0.9304">
        <ele>184.11</ele>
        <time>2015-05-21T09:12:59Z</time>
      </trkpt>
      <trkpt lat="43.47274" lon="0.93058">
        <ele>184.92</ele>
        <time>2015-05-21T09:13:11Z</time>
      </trkpt>
      <trkpt lat="43.47278" lon="0.93084">
        <ele>186.69</ele>
        <time>2015-05-21T09:13:29Z</time>
      </trkpt>
      <trkpt lat="43.47282" lon="0.93113">
        <ele>188.37</ele>
        <time>2015-05-21T09:13:48Z</time>
      </trkpt>
      <trkpt lat="43.47286" lon="0.93143">
        <ele>190.19</ele>
        <time>2015-05-21T09:14:09Z</time>
      </trkpt>
      <trkpt lat="43.47289" lon="0.9317">
        <ele>191.68</ele>
        <time>2015-05-21T09:14:28Z</time>
      </trkpt>
      <trkpt lat="43.47291" lon="0.93185">
        <ele>193.03</ele>
        <time>2015-05-21T09:14:39Z</time>
      </trkpt>
      <trkpt lat="43.47293" lon="0.9322">
        <ele>195.56</ele>
        <time>2015-05-21T09:15:03Z</time>
      </trkpt>
      <trkpt lat="43.47293" lon="0.93253">
        <ele>197.26</ele>
        <time>2015-05-21T09:15:25Z</time>
      </trkpt>
      <trkpt lat="43.47291" lon="0.9329">
        <ele>198.96</ele>
        <time>2015-05-21T09:15:50Z</time>
      </trkpt>
      <trkpt lat="43.47291" lon="0.93322">
        <ele>200.26</ele>
        <time>2015-05-21T09:16:11Z</time>
      </trkpt>
      <trkpt lat="43.47289" lon="0.93347">
        <ele>201.76</ele>
        <time>2015-05-21T09:16:29Z</time>
      </trkpt>
      <trkpt lat="43.47289" lon="0.9338">
        <ele>202.93</ele>
        <time>2015-05-21T09:16:51Z</time>
      </trkpt>
      <trkpt lat="43.47289" lon="0.93412">
        <ele>204.63</ele>
        <time>2015-05-21T09:17:13Z</time>
      </trkpt>
      <trkpt lat="43.47286" lon="0.93448">
        <ele>206.24</ele>
        <time>2015-05-21T09:17:37Z</time>
      </trkpt>
      <trkpt lat="43.47281" lon="0.93483">
        <ele>207.36</ele>
        <time>2015-05-21T09:18:00Z</time>
      </trkpt>
      <trkpt lat="43.47275" lon="0.93514">
        <ele>207.92</ele>
        <time>2015-05-21T09:18:19Z</time>
      </trkpt>
      <trkpt lat="43.47268" lon="0.93545">
        <ele>208.61</ele>
        <time>2015-05-21T09:18:37Z</time>
      </trkpt>
      <trkpt lat="43.47263" lon="0.93571">
        <ele>209</ele>
        <time>2015-05-21T09:18:54Z</time>
      </trkpt>
      <trkpt lat="43.47259" lon="0.93595">
        <ele>210.01</ele>
        <time>2015-05-21T09:19:10Z</time>
      </trkpt>
      <trkpt lat="43.47255" lon="0.93612">
        <ele>210.36</ele>
        <time>2015-05-21T09:19:22Z</time>
      </trkpt>
      <trkpt lat="43.47249" lon="0.93634">
        <ele>210.72</ele>
        <time>2015-05-21T09:19:38Z</time>
      </trkpt>
      <trkpt lat="43.47242" lon="0.93661">
        <ele>211.42</ele>
        <time>2015-05-21T09:19:56Z</time>
      </trkpt>
      <trkpt lat="43.47236" lon="0.93696">
        <ele>212.33</ele>
        <time>2015-05-21T09:20:14Z</time>
      </trkpt>
      <trkpt lat="43.47227" lon="0.93735">
        <ele>213.24</ele>
        <time>2015-05-21T09:20:36Z</time>
      </trkpt>
      <trkpt lat="43.47221" lon="0.93769">
        <ele>213.42</ele>
        <time>2015-05-21T09:20:56Z</time>
      </trkpt>
      <trkpt lat="43.47212" lon="0.9381">
        <ele>213.77</ele>
        <time>2015-05-21T09:21:20Z</time>
      </trkpt>
      <trkpt lat="43.47204" lon="0.93845">
        <ele>213.98</ele>
        <time>2015-05-21T09:21:43Z</time>
      </trkpt>
      <trkpt lat="43.47201" lon="0.93859">
        <ele>213.57</ele>
        <time>2015-05-21T09:22:03Z</time>
      </trkpt>
      <trkpt lat="43.47201" lon="0.9386">
        <ele>213.82</ele>
        <time>2015-05-21T09:22:26Z</time>
      </trkpt>
      <trkpt lat="43.47201" lon="0.93859">
        <ele>214.31</ele>
        <time>2015-05-21T09:22:55Z</time>
      </trkpt>
      <trkpt lat="43.47201" lon="0.93873">
        <ele>214.03</ele>
        <time>2015-05-21T09:23:18Z</time>
      </trkpt>
      <trkpt lat="43.47202" lon="0.93877">
        <ele>214.01</ele>
        <time>2015-05-21T09:23:21Z</time>
      </trkpt>
      <trkpt lat="43.47214" lon="0.93885">
        <ele>214.07</ele>
        <time>2015-05-21T09:23:35Z</time>
      </trkpt>
      <trkpt lat="43.47237" lon="0.93897">
        <ele>213.57</ele>
        <time>2015-05-21T09:23:57Z</time>
      </trkpt>
      <trkpt lat="43.47253" lon="0.93908">
        <ele>212.75</ele>
        <time>2015-05-21T09:24:14Z</time>
      </trkpt>
      <trkpt lat="43.47268" lon="0.93915">
        <ele>212.24</ele>
        <time>2015-05-21T09:24:29Z</time>
      </trkpt>
      <trkpt lat="43.4727" lon="0.93916">
        <ele>212.15</ele>
        <time>2015-05-21T09:24:31Z</time>
      </trkpt>
      <trkpt lat="43.4729" lon="0.93928">
        <ele>211.62</ele>
        <time>2015-05-21T09:24:49Z</time>
      </trkpt>
      <trkpt lat="43.4731" lon="0.93941">
        <ele>211.23</ele>
        <time>2015-05-21T09:25:05Z</time>
      </trkpt>
      <trkpt lat="43.47335" lon="0.93954">
        <ele>210.53</ele>
        <time>2015-05-21T09:25:24Z</time>
      </trkpt>
      <trkpt lat="43.47357" lon="0.93964">
        <ele>210.75</ele>
        <time>2015-05-21T09:25:43Z</time>
      </trkpt>
      <trkpt lat="43.47375" lon="0.93975">
        <ele>210.68</ele>
        <time>2015-05-21T09:26:00Z</time>
      </trkpt>
      <trkpt lat="43.47394" lon="0.93985">
        <ele>210.31</ele>
        <time>2015-05-21T09:26:17Z</time>
      </trkpt>
      <trkpt lat="43.47411" lon="0.93994">
        <ele>210.03</ele>
        <time>2015-05-21T09:26:33Z</time>
      </trkpt>
      <trkpt lat="43.47434" lon="0.94009">
        <ele>209.47</ele>
        <time>2015-05-21T09:26:52Z</time>
      </trkpt>
      <trkpt lat="43.47457" lon="0.94023">
        <ele>209.36</ele>
        <time>2015-05-21T09:27:12Z</time>
      </trkpt>
      <trkpt lat="43.47475" lon="0.94035">
        <ele>209.45</ele>
        <time>2015-05-21T09:27:29Z</time>
      </trkpt>
      <trkpt lat="43.47497" lon="0.94045">
        <ele>209.36</ele>
        <time>2015-05-21T09:27:46Z</time>
      </trkpt>
      <trkpt lat="43.47512" lon="0.94047">
        <ele>209.22</ele>
        <time>2015-05-21T09:28:02Z</time>
      </trkpt>
      <trkpt lat="43.47515" lon="0.94062">
        <ele>208.63</ele>
        <time>2015-05-21T09:28:17Z</time>
      </trkpt>
      <trkpt lat="43.47509" lon="0.94079">
        <ele>207.01</ele>
        <time>2015-05-21T09:28:37Z</time>
      </trkpt>
      <trkpt lat="43.47505" lon="0.94095">
        <ele>205.9</ele>
        <time>2015-05-21T09:28:56Z</time>
      </trkpt>
      <trkpt lat="43.47498" lon="0.94118">
        <ele>204.66</ele>
        <time>2015-05-21T09:29:14Z</time>
      </trkpt>
      <trkpt lat="43.47492" lon="0.94139">
        <ele>203.1</ele>
        <time>2015-05-21T09:29:35Z</time>
      </trkpt>
      <trkpt lat="43.47482" lon="0.94163">
        <ele>201.84</ele>
        <time>2015-05-21T09:29:57Z</time>
      </trkpt>
      <trkpt lat="43.47473" lon="0.94192">
        <ele>200.52</ele>
        <time>2015-05-21T09:30:20Z</time>
      </trkpt>
      <trkpt lat="43.47464" lon="0.9422">
        <ele>199.46</ele>
        <time>2015-05-21T09:30:44Z</time>
      </trkpt>
      <trkpt lat="43.47458" lon="0.94244">
        <ele>198.86</ele>
        <time>2015-05-21T09:31:04Z</time>
      </trkpt>
      <trkpt lat="43.47452" lon="0.94266">
        <ele>198.32</ele>
        <time>2015-05-21T09:31:24Z</time>
      </trkpt>
      <trkpt lat="43.47449" lon="0.9429">
        <ele>196.95</ele>
        <time>2015-05-21T09:31:43Z</time>
      </trkpt>
      <trkpt lat="43.47449" lon="0.94291">
        <ele>196.84</ele>
        <time>2015-05-21T09:31:45Z</time>
      </trkpt>
      <trkpt lat="43.47445" lon="0.94308">
        <ele>195.77</ele>
        <time>2015-05-21T09:32:05Z</time>
      </trkpt>
      <trkpt lat="43.47431" lon="0.94341">
        <ele>194.52</ele>
        <time>2015-05-21T09:32:26Z</time>
      </trkpt>
      <trkpt lat="43.47424" lon="0.94369">
        <ele>192.77</ele>
        <time>2015-05-21T09:32:50Z</time>
      </trkpt>
      <trkpt lat="43.47418" lon="0.94391">
        <ele>192.38</ele>
        <time>2015-05-21T09:33:11Z</time>
      </trkpt>
      <trkpt lat="43.47414" lon="0.94404">
        <ele>192.32</ele>
        <time>2015-05-21T09:33:24Z</time>
      </trkpt>
      <trkpt lat="43.47402" lon="0.94415">
        <ele>192.01</ele>
        <time>2015-05-21T09:33:37Z</time>
      </trkpt>
      <trkpt lat="43.47389" lon="0.94427">
        <ele>191.71</ele>
        <time>2015-05-21T09:33:51Z</time>
      </trkpt>
      <trkpt lat="43.47372" lon="0.94435">
        <ele>191.24</ele>
        <time>2015-05-21T09:34:05Z</time>
      </trkpt>
      <trkpt lat="43.47356" lon="0.94436">
        <ele>190.52</ele>
        <time>2015-05-21T09:34:26Z</time>
      </trkpt>
      <trkpt lat="43.47348" lon="0.94446">
        <ele>189.47</ele>
        <time>2015-05-21T09:34:47Z</time>
      </trkpt>
      <trkpt lat="43.47348" lon="0.94473">
        <ele>188.25</ele>
        <time>2015-05-21T09:35:09Z</time>
      </trkpt>
      <trkpt lat="43.47357" lon="0.94506">
        <ele>188.53</ele>
        <time>2015-05-21T09:35:33Z</time>
      </trkpt>
      <trkpt lat="43.47365" lon="0.94538">
        <ele>188.58</ele>
        <time>2015-05-21T09:35:54Z</time>
      </trkpt>
      <trkpt lat="43.47374" lon="0.94562">
        <ele>188.21</ele>
        <time>2015-05-21T09:36:15Z</time>
      </trkpt>
      <trkpt lat="43.47387" lon="0.94589">
        <ele>188.05</ele>
        <time>2015-05-21T09:36:37Z</time>
      </trkpt>
      <trkpt lat="43.47392" lon="0.94617">
        <ele>187.01</ele>
        <time>2015-05-21T09:36:57Z</time>
      </trkpt>
      <trkpt lat="43.47404" lon="0.9464">
        <ele>186.58</ele>
        <time>2015-05-21T09:37:19Z</time>
      </trkpt>
      <trkpt lat="43.47421" lon="0.94647">
        <ele>186.12</ele>
        <time>2015-05-21T09:37:42Z</time>
      </trkpt>
      <trkpt lat="43.47437" lon="0.94655">
        <ele>185.92</ele>
        <time>2015-05-21T09:38:02Z</time>
      </trkpt>
      <trkpt lat="43.47458" lon="0.94667">
        <ele>185.66</ele>
        <time>2015-05-21T09:38:23Z</time>
      </trkpt>
      <trkpt lat="43.4746" lon="0.94668">
        <ele>185.61</ele>
        <time>2015-05-21T09:38:24Z</time>
      </trkpt>
      <trkpt lat="43.47478" lon="0.94683">
        <ele>184.87</ele>
        <time>2015-05-21T09:38:45Z</time>
      </trkpt>
      <trkpt lat="43.47499" lon="0.94694">
        <ele>184.81</ele>
        <time>2015-05-21T09:39:07Z</time>
      </trkpt>
      <trkpt lat="43.47524" lon="0.94699">
        <ele>184.4</ele>
        <time>2015-05-21T09:39:32Z</time>
      </trkpt>
      <trkpt lat="43.47529" lon="0.94723">
        <ele>182.81</ele>
        <time>2015-05-21T09:39:54Z</time>
      </trkpt>
      <trkpt lat="43.47544" lon="0.94741">
        <ele>182.19</ele>
        <time>2015-05-21T09:40:14Z</time>
      </trkpt>
      <trkpt lat="43.47554" lon="0.94741">
        <ele>182.21</ele>
        <time>2015-05-21T09:40:24Z</time>
      </trkpt>
      <trkpt lat="43.47573" lon="0.94741">
        <ele>182.48</ele>
        <time>2015-05-21T09:40:39Z</time>
      </trkpt>
      <trkpt lat="43.47588" lon="0.94745">
        <ele>182.77</ele>
        <time>2015-05-21T09:40:55Z</time>
      </trkpt>
      <trkpt lat="43.47606" lon="0.94747">
        <ele>183.19</ele>
        <time>2015-05-21T09:41:10Z</time>
      </trkpt>
      <trkpt lat="43.47623" lon="0.94751">
        <ele>183.16</ele>
        <time>2015-05-21T09:41:26Z</time>
      </trkpt>
      <trkpt lat="43.47641" lon="0.94756">
        <ele>182.69</ele>
        <time>2015-05-21T09:41:43Z</time>
      </trkpt>
      <trkpt lat="43.47658" lon="0.94761">
        <ele>181.89</ele>
        <time>2015-05-21T09:42:00Z</time>
      </trkpt>
      <trkpt lat="43.47665" lon="0.94764">
        <ele>181.18</ele>
        <time>2015-05-21T09:42:17Z</time>
      </trkpt>
      <trkpt lat="43.47665" lon="0.94764">
        <ele>180.96</ele>
        <time>2015-05-21T09:42:48Z</time>
      </trkpt>
      <trkpt lat="43.47668" lon="0.94764">
        <ele>180.87</ele>
        <time>2015-05-21T09:43:13Z</time>
      </trkpt>
      <trkpt lat="43.47668" lon="0.94764">
        <ele>180.98</ele>
        <time>2015-05-21T09:43:40Z</time>
      </trkpt>
      <trkpt lat="43.4767" lon="0.94765">
        <ele>181.07</ele>
        <time>2015-05-21T09:44:05Z</time>
      </trkpt>
      <trkpt lat="43.47671" lon="0.94767">
        <ele>181.03</ele>
        <time>2015-05-21T09:44:09Z</time>
      </trkpt>
      <trkpt lat="43.47671" lon="0.9477">
        <ele>181.08</ele>
        <time>2015-05-21T09:44:11Z</time>
      </trkpt>
      <trkpt lat="43.47664" lon="0.948">
        <ele>180.12</ele>
        <time>2015-05-21T09:44:33Z</time>
      </trkpt>
      <trkpt lat="43.4766" lon="0.94822">
        <ele>179.58</ele>
        <time>2015-05-21T09:44:52Z</time>
      </trkpt>
      <trkpt lat="43.47655" lon="0.94848">
        <ele>179.46</ele>
        <time>2015-05-21T09:45:13Z</time>
      </trkpt>
      <trkpt lat="43.47648" lon="0.94874">
        <ele>178.49</ele>
        <time>2015-05-21T09:45:33Z</time>
      </trkpt>
      <trkpt lat="43.47642" lon="0.94901">
        <ele>177.73</ele>
        <time>2015-05-21T09:45:55Z</time>
      </trkpt>
      <trkpt lat="43.47636" lon="0.94933">
        <ele>177.17</ele>
        <time>2015-05-21T09:46:14Z</time>
      </trkpt>
      <trkpt lat="43.47631" lon="0.94965">
        <ele>176.55</ele>
        <time>2015-05-21T09:46:33Z</time>
      </trkpt>
      <trkpt lat="43.47626" lon="0.95">
        <ele>175.93</ele>
        <time>2015-05-21T09:46:53Z</time>
      </trkpt>
      <trkpt lat="43.47621" lon="0.95026">
        <ele>174.97</ele>
        <time>2015-05-21T09:47:11Z</time>
      </trkpt>
      <trkpt lat="43.47618" lon="0.95054">
        <ele>174.98</ele>
        <time>2015-05-21T09:47:29Z</time>
      </trkpt>
      <trkpt lat="43.47613" lon="0.95089">
        <ele>174.02</ele>
        <time>2015-05-21T09:47:50Z</time>
      </trkpt>
      <trkpt lat="43.47606" lon="0.95124">
        <ele>173.33</ele>
        <time>2015-05-21T09:48:12Z</time>
      </trkpt>
      <trkpt lat="43.47595" lon="0.95168">
        <ele>172.12</ele>
        <time>2015-05-21T09:48:40Z</time>
      </trkpt>
      <trkpt lat="43.47587" lon="0.95191">
        <ele>171.75</ele>
        <time>2015-05-21T09:49:03Z</time>
      </trkpt>
      <trkpt lat="43.47592" lon="0.95187">
        <ele>171.42</ele>
        <time>2015-05-21T09:49:22Z</time>
      </trkpt>
      <trkpt lat="43.47606" lon="0.95176">
        <ele>171.88</ele>
        <time>2015-05-21T09:49:38Z</time>
      </trkpt>
      <trkpt lat="43.47618" lon="0.95174">
        <ele>171.95</ele>
        <time>2015-05-21T09:49:52Z</time>
      </trkpt>
      <trkpt lat="43.47636" lon="0.95171">
        <ele>172.38</ele>
        <time>2015-05-21T09:50:09Z</time>
      </trkpt>
      <trkpt lat="43.47652" lon="0.95169">
        <ele>172.41</ele>
        <time>2015-05-21T09:50:24Z</time>
      </trkpt>
      <trkpt lat="43.4767" lon="0.95168">
        <ele>172.59</ele>
        <time>2015-05-21T09:50:39Z</time>
      </trkpt>
      <trkpt lat="43.47684" lon="0.95166">
        <ele>172.58</ele>
        <time>2015-05-21T09:50:54Z</time>
      </trkpt>
      <trkpt lat="43.47701" lon="0.95163">
        <ele>172.36</ele>
        <time>2015-05-21T09:51:09Z</time>
      </trkpt>
      <trkpt lat="43.47723" lon="0.95161">
        <ele>172.14</ele>
        <time>2015-05-21T09:51:28Z</time>
      </trkpt>
      <trkpt lat="43.47745" lon="0.95155">
        <ele>172.51</ele>
        <time>2015-05-21T09:51:47Z</time>
      </trkpt>
      <trkpt lat="43.47764" lon="0.95149">
        <ele>172.39</ele>
        <time>2015-05-21T09:52:04Z</time>
      </trkpt>
      <trkpt lat="43.47773" lon="0.95145">
        <ele>172.33</ele>
        <time>2015-05-21T09:52:12Z</time>
      </trkpt>
      <trkpt lat="43.47793" lon="0.95141">
        <ele>171.62</ele>
        <time>2015-05-21T09:52:29Z</time>
      </trkpt>
      <trkpt lat="43.47813" lon="0.95133">
        <ele>171.35</ele>
        <time>2015-05-21T09:52:47Z</time>
      </trkpt>
      <trkpt lat="43.47838" lon="0.95126">
        <ele>170.5</ele>
        <time>2015-05-21T09:53:07Z</time>
      </trkpt>
      <trkpt lat="43.47861" lon="0.95119">
        <ele>169.77</ele>
        <time>2015-05-21T09:53:26Z</time>
      </trkpt>
      <trkpt lat="43.47881" lon="0.95112">
        <ele>169.91</ele>
        <time>2015-05-21T09:53:45Z</time>
      </trkpt>
      <trkpt lat="43.47899" lon="0.9511">
        <ele>169.65</ele>
        <time>2015-05-21T09:54:01Z</time>
      </trkpt>
      <trkpt lat="43.47915" lon="0.95107">
        <ele>170.12</ele>
        <time>2015-05-21T09:54:16Z</time>
      </trkpt>
      <trkpt lat="43.47931" lon="0.95114">
        <ele>171.33</ele>
        <time>2015-05-21T09:54:32Z</time>
      </trkpt>
      <trkpt lat="43.47935" lon="0.95118">
        <ele>171.71</ele>
        <time>2015-05-21T09:54:37Z</time>
      </trkpt>
      <trkpt lat="43.47948" lon="0.95133">
        <ele>172.36</ele>
        <time>2015-05-21T09:54:51Z</time>
      </trkpt>
      <trkpt lat="43.47955" lon="0.9514">
        <ele>172.26</ele>
        <time>2015-05-21T09:55:00Z</time>
      </trkpt>
      <trkpt lat="43.47961" lon="0.95145">
        <ele>172.15</ele>
        <time>2015-05-21T09:55:06Z</time>
      </trkpt>
      <trkpt lat="43.47968" lon="0.95151">
        <ele>171.69</ele>
        <time>2015-05-21T09:55:12Z</time>
      </trkpt>
      <trkpt lat="43.4799" lon="0.95172">
        <ele>171.29</ele>
        <time>2015-05-21T09:55:31Z</time>
      </trkpt>
      <trkpt lat="43.48007" lon="0.95187">
        <ele>170.91</ele>
        <time>2015-05-21T09:55:48Z</time>
      </trkpt>
      <trkpt lat="43.48022" lon="0.95199">
        <ele>171.03</ele>
        <time>2015-05-21T09:56:03Z</time>
      </trkpt>
      <trkpt lat="43.48044" lon="0.95217">
        <ele>170.58</ele>
        <time>2015-05-21T09:56:25Z</time>
      </trkpt>
      <trkpt lat="43.48059" lon="0.95231">
        <ele>170.15</ele>
        <time>2015-05-21T09:56:42Z</time>
      </trkpt>
      <trkpt lat="43.48062" lon="0.95234">
        <ele>170.08</ele>
        <time>2015-05-21T09:56:46Z</time>
      </trkpt>
      <trkpt lat="43.48076" lon="0.95247">
        <ele>169.87</ele>
        <time>2015-05-21T09:57:02Z</time>
      </trkpt>
      <trkpt lat="43.48093" lon="0.9526">
        <ele>169.85</ele>
        <time>2015-05-21T09:57:19Z</time>
      </trkpt>
      <trkpt lat="43.48107" lon="0.95272">
        <ele>169.47</ele>
        <time>2015-05-21T09:57:34Z</time>
      </trkpt>
      <trkpt lat="43.48121" lon="0.95285">
        <ele>169.56</ele>
        <time>2015-05-21T09:57:50Z</time>
      </trkpt>
      <trkpt lat="43.48137" lon="0.95298">
        <ele>169.83</ele>
        <time>2015-05-21T09:58:06Z</time>
      </trkpt>
      <trkpt lat="43.48153" lon="0.95314">
        <ele>169.75</ele>
        <time>2015-05-21T09:58:22Z</time>
      </trkpt>
      <trkpt lat="43.48169" lon="0.95329">
        <ele>169.54</ele>
        <time>2015-05-21T09:58:39Z</time>
      </trkpt>
      <trkpt lat="43.48184" lon="0.95341">
        <ele>169.53</ele>
        <time>2015-05-21T09:58:54Z</time>
      </trkpt>
      <trkpt lat="43.48197" lon="0.95353">
        <ele>169.5</ele>
        <time>2015-05-21T09:59:08Z</time>
      </trkpt>
      <trkpt lat="43.48214" lon="0.95368">
        <ele>169.41</ele>
        <time>2015-05-21T09:59:25Z</time>
      </trkpt>
      <trkpt lat="43.48232" lon="0.95389">
        <ele>169</ele>
        <time>2015-05-21T09:59:45Z</time>
      </trkpt>
      <trkpt lat="43.48247" lon="0.95403">
        <ele>168.64</ele>
        <time>2015-05-21T10:00:01Z</time>
      </trkpt>
      <trkpt lat="43.48258" lon="0.95415">
        <ele>168.42</ele>
        <time>2015-05-21T10:00:14Z</time>
      </trkpt>
      <trkpt lat="43.4826" lon="0.95416">
        <ele>168.19</ele>
        <time>2015-05-21T10:00:16Z</time>
      </trkpt>
      <trkpt lat="43.48278" lon="0.95432">
        <ele>168.25</ele>
        <time>2015-05-21T10:00:34Z</time>
      </trkpt>
      <trkpt lat="43.48293" lon="0.95444">
        <ele>167.88</ele>
        <time>2015-05-21T10:00:49Z</time>
      </trkpt>
      <trkpt lat="43.48305" lon="0.95455">
        <ele>167.88</ele>
        <time>2015-05-21T10:01:02Z</time>
      </trkpt>
      <trkpt lat="43.48322" lon="0.95471">
        <ele>167.2</ele>
        <time>2015-05-21T10:01:19Z</time>
      </trkpt>
      <trkpt lat="43.4834" lon="0.95487">
        <ele>167.04</ele>
        <time>2015-05-21T10:01:38Z</time>
      </trkpt>
      <trkpt lat="43.4836" lon="0.95505">
        <ele>166.83</ele>
        <time>2015-05-21T10:01:59Z</time>
      </trkpt>
      <trkpt lat="43.48373" lon="0.95516">
        <ele>166.7</ele>
        <time>2015-05-21T10:02:16Z</time>
      </trkpt>
      <trkpt lat="43.48376" lon="0.95521">
        <ele>166.83</ele>
        <time>2015-05-21T10:02:39Z</time>
      </trkpt>
      <trkpt lat="43.48374" lon="0.95519">
        <ele>166.87</ele>
        <time>2015-05-21T10:03:03Z</time>
      </trkpt>
      <trkpt lat="43.48374" lon="0.9552">
        <ele>166.88</ele>
        <time>2015-05-21T10:03:36Z</time>
      </trkpt>
      <trkpt lat="43.48373" lon="0.95522">
        <ele>166.33</ele>
        <time>2015-05-21T10:04:09Z</time>
      </trkpt>
      <trkpt lat="43.48372" lon="0.95522">
        <ele>166.53</ele>
        <time>2015-05-21T10:04:40Z</time>
      </trkpt>
      <trkpt lat="43.48374" lon="0.95521">
        <ele>166.36</ele>
        <time>2015-05-21T10:05:10Z</time>
      </trkpt>
      <trkpt lat="43.48376" lon="0.95522">
        <ele>166.29</ele>
        <time>2015-05-21T10:05:40Z</time>
      </trkpt>
      <trkpt lat="43.48377" lon="0.95521">
        <ele>166.53</ele>
        <time>2015-05-21T10:06:10Z</time>
      </trkpt>
      <trkpt lat="43.48377" lon="0.95525">
        <ele>166.42</ele>
        <time>2015-05-21T10:06:36Z</time>
      </trkpt>
      <trkpt lat="43.48376" lon="0.95526">
        <ele>166.21</ele>
        <time>2015-05-21T10:07:05Z</time>
      </trkpt>
      <trkpt lat="43.48383" lon="0.95519">
        <ele>166.36</ele>
        <time>2015-05-21T10:07:17Z</time>
      </trkpt>
      <trkpt lat="43.48393" lon="0.95491">
        <ele>166.35</ele>
        <time>2015-05-21T10:07:36Z</time>
      </trkpt>
      <trkpt lat="43.48401" lon="0.95469">
        <ele>166.44</ele>
        <time>2015-05-21T10:07:52Z</time>
      </trkpt>
      <trkpt lat="43.4841" lon="0.95454">
        <ele>166.59</ele>
        <time>2015-05-21T10:08:11Z</time>
      </trkpt>
      <trkpt lat="43.48414" lon="0.95445">
        <ele>166.9</ele>
        <time>2015-05-21T10:08:23Z</time>
      </trkpt>
      <trkpt lat="43.48423" lon="0.95423">
        <ele>167.06</ele>
        <time>2015-05-21T10:08:41Z</time>
      </trkpt>
      <trkpt lat="43.48425" lon="0.9542">
        <ele>167.22</ele>
        <time>2015-05-21T10:08:50Z</time>
      </trkpt>
      <trkpt lat="43.48428" lon="0.95414">
        <ele>167.29</ele>
        <time>2015-05-21T10:08:56Z</time>
      </trkpt>
      <trkpt lat="43.4844" lon="0.95386">
        <ele>167.28</ele>
        <time>2015-05-21T10:09:17Z</time>
      </trkpt>
      <trkpt lat="43.48452" lon="0.95359">
        <ele>168.1</ele>
        <time>2015-05-21T10:09:38Z</time>
      </trkpt>
      <trkpt lat="43.48464" lon="0.95333">
        <ele>168.73</ele>
        <time>2015-05-21T10:09:58Z</time>
      </trkpt>
      <trkpt lat="43.48471" lon="0.95318">
        <ele>169.15</ele>
        <time>2015-05-21T10:10:11Z</time>
      </trkpt>
      <trkpt lat="43.48475" lon="0.95307">
        <ele>169.1</ele>
        <time>2015-05-21T10:10:18Z</time>
      </trkpt>
      <trkpt lat="43.48485" lon="0.9529">
        <ele>169.88</ele>
        <time>2015-05-21T10:10:34Z</time>
      </trkpt>
      <trkpt lat="43.48496" lon="0.95267">
        <ele>171.03</ele>
        <time>2015-05-21T10:10:53Z</time>
      </trkpt>
      <trkpt lat="43.48496" lon="0.95265">
        <ele>171.05</ele>
        <time>2015-05-21T10:10:54Z</time>
      </trkpt>
      <trkpt lat="43.48502" lon="0.9525">
        <ele>172.01</ele>
        <time>2015-05-21T10:11:09Z</time>
      </trkpt>
      <trkpt lat="43.48504" lon="0.95247">
        <ele>172.24</ele>
        <time>2015-05-21T10:11:15Z</time>
      </trkpt>
      <trkpt lat="43.48512" lon="0.95227">
        <ele>172.82</ele>
        <time>2015-05-21T10:11:33Z</time>
      </trkpt>
      <trkpt lat="43.4852" lon="0.95209">
        <ele>174.06</ele>
        <time>2015-05-21T10:11:48Z</time>
      </trkpt>
      <trkpt lat="43.48528" lon="0.95189">
        <ele>175.36</ele>
        <time>2015-05-21T10:12:04Z</time>
      </trkpt>
      <trkpt lat="43.48536" lon="0.95169">
        <ele>176.69</ele>
        <time>2015-05-21T10:12:20Z</time>
      </trkpt>
      <trkpt lat="43.48541" lon="0.95153">
        <ele>177.67</ele>
        <time>2015-05-21T10:12:32Z</time>
      </trkpt>
      <trkpt lat="43.48544" lon="0.95146">
        <ele>178.01</ele>
        <time>2015-05-21T10:12:38Z</time>
      </trkpt>
      <trkpt lat="43.48548" lon="0.95139">
        <ele>178.4</ele>
        <time>2015-05-21T10:12:44Z</time>
      </trkpt>
      <trkpt lat="43.48552" lon="0.95133">
        <ele>178.82</ele>
        <time>2015-05-21T10:12:50Z</time>
      </trkpt>
      <trkpt lat="43.48559" lon="0.95112">
        <ele>179.82</ele>
        <time>2015-05-21T10:13:06Z</time>
      </trkpt>
      <trkpt lat="43.48568" lon="0.95092">
        <ele>181.14</ele>
        <time>2015-05-21T10:13:22Z</time>
      </trkpt>
      <trkpt lat="43.48573" lon="0.95082">
        <ele>181.66</ele>
        <time>2015-05-21T10:13:29Z</time>
      </trkpt>
      <trkpt lat="43.48577" lon="0.95075">
        <ele>181.86</ele>
        <time>2015-05-21T10:13:35Z</time>
      </trkpt>
      <trkpt lat="43.48587" lon="0.95052">
        <ele>183.17</ele>
        <time>2015-05-21T10:13:51Z</time>
      </trkpt>
      <trkpt lat="43.48591" lon="0.95044">
        <ele>183.95</ele>
        <time>2015-05-21T10:13:58Z</time>
      </trkpt>
      <trkpt lat="43.48601" lon="0.95026">
        <ele>185.12</ele>
        <time>2015-05-21T10:14:13Z</time>
      </trkpt>
      <trkpt lat="43.4861" lon="0.95007">
        <ele>186.05</ele>
        <time>2015-05-21T10:14:28Z</time>
      </trkpt>
      <trkpt lat="43.48619" lon="0.94985">
        <ele>186.82</ele>
        <time>2015-05-21T10:14:44Z</time>
      </trkpt>
      <trkpt lat="43.48629" lon="0.94965">
        <ele>188.07</ele>
        <time>2015-05-21T10:15:01Z</time>
      </trkpt>
      <trkpt lat="43.48637" lon="0.94943">
        <ele>189.18</ele>
        <time>2015-05-21T10:15:17Z</time>
      </trkpt>
      <trkpt lat="43.48651" lon="0.9492">
        <ele>190.38</ele>
        <time>2015-05-21T10:15:38Z</time>
      </trkpt>
      <trkpt lat="43.48661" lon="0.94905">
        <ele>191.63</ele>
        <time>2015-05-21T10:15:53Z</time>
      </trkpt>
      <trkpt lat="43.48673" lon="0.94884">
        <ele>192.96</ele>
        <time>2015-05-21T10:16:10Z</time>
      </trkpt>
      <trkpt lat="43.48691" lon="0.94872">
        <ele>194.04</ele>
        <time>2015-05-21T10:16:28Z</time>
      </trkpt>
      <trkpt lat="43.48709" lon="0.94858">
        <ele>195.21</ele>
        <time>2015-05-21T10:16:46Z</time>
      </trkpt>
      <trkpt lat="43.48719" lon="0.94852">
        <ele>195.72</ele>
        <time>2015-05-21T10:16:54Z</time>
      </trkpt>
      <trkpt lat="43.48726" lon="0.94861">
        <ele>195.9</ele>
        <time>2015-05-21T10:17:08Z</time>
      </trkpt>
      <trkpt lat="43.48724" lon="0.9487">
        <ele>196.07</ele>
        <time>2015-05-21T10:17:16Z</time>
      </trkpt>
      <trkpt lat="43.48722" lon="0.94879">
        <ele>196.08</ele>
        <time>2015-05-21T10:17:23Z</time>
      </trkpt>
      <trkpt lat="43.48719" lon="0.94909">
        <ele>196.29</ele>
        <time>2015-05-21T10:17:41Z</time>
      </trkpt>
      <trkpt lat="43.48725" lon="0.94939">
        <ele>196.14</ele>
        <time>2015-05-21T10:17:59Z</time>
      </trkpt>
      <trkpt lat="43.48733" lon="0.94968">
        <ele>196.34</ele>
        <time>2015-05-21T10:18:16Z</time>
      </trkpt>
      <trkpt lat="43.48744" lon="0.94993">
        <ele>196.55</ele>
        <time>2015-05-21T10:18:34Z</time>
      </trkpt>
      <trkpt lat="43.48762" lon="0.95018">
        <ele>197.04</ele>
        <time>2015-05-21T10:18:56Z</time>
      </trkpt>
      <trkpt lat="43.48783" lon="0.95038">
        <ele>198.01</ele>
        <time>2015-05-21T10:19:18Z</time>
      </trkpt>
      <trkpt lat="43.488" lon="0.95051">
        <ele>199.11</ele>
        <time>2015-05-21T10:19:35Z</time>
      </trkpt>
      <trkpt lat="43.48815" lon="0.95062">
        <ele>199.64</ele>
        <time>2015-05-21T10:19:51Z</time>
      </trkpt>
      <trkpt lat="43.48829" lon="0.95073">
        <ele>200.32</ele>
        <time>2015-05-21T10:20:06Z</time>
      </trkpt>
      <trkpt lat="43.48848" lon="0.95086">
        <ele>200.93</ele>
        <time>2015-05-21T10:20:24Z</time>
      </trkpt>
      <trkpt lat="43.48869" lon="0.95102">
        <ele>201.47</ele>
        <time>2015-05-21T10:20:46Z</time>
      </trkpt>
      <trkpt lat="43.48884" lon="0.95112">
        <ele>201.83</ele>
        <time>2015-05-21T10:21:03Z</time>
      </trkpt>
      <trkpt lat="43.489" lon="0.95125">
        <ele>202.2</ele>
        <time>2015-05-21T10:21:18Z</time>
      </trkpt>
      <trkpt lat="43.48919" lon="0.95137">
        <ele>202.22</ele>
        <time>2015-05-21T10:21:35Z</time>
      </trkpt>
      <trkpt lat="43.48942" lon="0.95153">
        <ele>201.43</ele>
        <time>2015-05-21T10:21:55Z</time>
      </trkpt>
      <trkpt lat="43.48961" lon="0.95167">
        <ele>201.13</ele>
        <time>2015-05-21T10:22:13Z</time>
      </trkpt>
      <trkpt lat="43.48968" lon="0.95172">
        <ele>201.04</ele>
        <time>2015-05-21T10:22:23Z</time>
      </trkpt>
      <trkpt lat="43.48987" lon="0.95185">
        <ele>200.92</ele>
        <time>2015-05-21T10:22:43Z</time>
      </trkpt>
      <trkpt lat="43.49007" lon="0.95201">
        <ele>200.68</ele>
        <time>2015-05-21T10:23:04Z</time>
      </trkpt>
      <trkpt lat="43.49021" lon="0.95212">
        <ele>200.91</ele>
        <time>2015-05-21T10:23:20Z</time>
      </trkpt>
      <trkpt lat="43.49041" lon="0.95225">
        <ele>201.2</ele>
        <time>2015-05-21T10:23:37Z</time>
      </trkpt>
      <trkpt lat="43.49043" lon="0.95227">
        <ele>201.25</ele>
        <time>2015-05-21T10:23:39Z</time>
      </trkpt>
      <trkpt lat="43.49068" lon="0.95241">
        <ele>201.7</ele>
        <time>2015-05-21T10:24:00Z</time>
      </trkpt>
      <trkpt lat="43.49088" lon="0.95256">
        <ele>202.15</ele>
        <time>2015-05-21T10:24:16Z</time>
      </trkpt>
      <trkpt lat="43.49104" lon="0.95267">
        <ele>202.67</ele>
        <time>2015-05-21T10:24:32Z</time>
      </trkpt>
      <trkpt lat="43.49105" lon="0.95268">
        <ele>202.68</ele>
        <time>2015-05-21T10:24:33Z</time>
      </trkpt>
      <trkpt lat="43.49124" lon="0.95282">
        <ele>203.06</ele>
        <time>2015-05-21T10:24:52Z</time>
      </trkpt>
      <trkpt lat="43.49135" lon="0.95289">
        <ele>203.09</ele>
        <time>2015-05-21T10:25:02Z</time>
      </trkpt>
      <trkpt lat="43.49152" lon="0.95302">
        <ele>203.98</ele>
        <time>2015-05-21T10:25:19Z</time>
      </trkpt>
      <trkpt lat="43.49174" lon="0.95316">
        <ele>204.69</ele>
        <time>2015-05-21T10:25:37Z</time>
      </trkpt>
      <trkpt lat="43.4919" lon="0.95331">
        <ele>204.34</ele>
        <time>2015-05-21T10:25:57Z</time>
      </trkpt>
      <trkpt lat="43.49208" lon="0.95344">
        <ele>204.7</ele>
        <time>2015-05-21T10:26:14Z</time>
      </trkpt>
      <trkpt lat="43.49211" lon="0.95346">
        <ele>204.72</ele>
        <time>2015-05-21T10:26:24Z</time>
      </trkpt>
      <trkpt lat="43.49214" lon="0.95354">
        <ele>204.8</ele>
        <time>2015-05-21T10:26:51Z</time>
      </trkpt>
      <trkpt lat="43.49207" lon="0.95369">
        <ele>204.33</ele>
        <time>2015-05-21T10:27:09Z</time>
      </trkpt>
      <trkpt lat="43.49199" lon="0.95397">
        <ele>203.45</ele>
        <time>2015-05-21T10:27:32Z</time>
      </trkpt>
      <trkpt lat="43.49194" lon="0.95413">
        <ele>202.23</ele>
        <time>2015-05-21T10:27:47Z</time>
      </trkpt>
      <trkpt lat="43.49192" lon="0.95443">
        <ele>200.85</ele>
        <time>2015-05-21T10:28:12Z</time>
      </trkpt>
      <trkpt lat="43.49192" lon="0.95468">
        <ele>199.29</ele>
        <time>2015-05-21T10:28:33Z</time>
      </trkpt>
      <trkpt lat="43.49188" lon="0.95492">
        <ele>198.06</ele>
        <time>2015-05-21T10:28:54Z</time>
      </trkpt>
      <trkpt lat="43.49191" lon="0.95498">
        <ele>198.02</ele>
        <time>2015-05-21T10:29:21Z</time>
      </trkpt>
      <trkpt lat="43.49189" lon="0.95495">
        <ele>197.82</ele>
        <time>2015-05-21T10:29:51Z</time>
      </trkpt>
      <trkpt lat="43.49187" lon="0.95499">
        <ele>197.71</ele>
        <time>2015-05-21T10:30:20Z</time>
      </trkpt>
      <trkpt lat="43.4919" lon="0.95502">
        <ele>198.1</ele>
        <time>2015-05-21T10:30:51Z</time>
      </trkpt>
      <trkpt lat="43.49185" lon="0.95528">
        <ele>196.41</ele>
        <time>2015-05-21T10:31:14Z</time>
      </trkpt>
      <trkpt lat="43.49181" lon="0.95561">
        <ele>194.45</ele>
        <time>2015-05-21T10:31:36Z</time>
      </trkpt>
      <trkpt lat="43.49173" lon="0.95595">
        <ele>193.03</ele>
        <time>2015-05-21T10:31:58Z</time>
      </trkpt>
      <trkpt lat="43.49173" lon="0.95614">
        <ele>192.09</ele>
        <time>2015-05-21T10:32:19Z</time>
      </trkpt>
      <trkpt lat="43.49173" lon="0.95619">
        <ele>192.04</ele>
        <time>2015-05-21T10:32:43Z</time>
      </trkpt>
      <trkpt lat="43.49172" lon="0.95627">
        <ele>191.65</ele>
        <time>2015-05-21T10:33:09Z</time>
      </trkpt>
      <trkpt lat="43.49171" lon="0.95626">
        <ele>191.81</ele>
        <time>2015-05-21T10:33:37Z</time>
      </trkpt>
      <trkpt lat="43.49172" lon="0.95625">
        <ele>191.77</ele>
        <time>2015-05-21T10:33:59Z</time>
      </trkpt>
      <trkpt lat="43.4918" lon="0.95636">
        <ele>191.38</ele>
        <time>2015-05-21T10:34:21Z</time>
      </trkpt>
      <trkpt lat="43.49186" lon="0.95642">
        <ele>191.22</ele>
        <time>2015-05-21T10:34:28Z</time>
      </trkpt>
      <trkpt lat="43.49198" lon="0.95654">
        <ele>190.67</ele>
        <time>2015-05-21T10:34:44Z</time>
      </trkpt>
      <trkpt lat="43.49216" lon="0.95667">
        <ele>189.13</ele>
        <time>2015-05-21T10:35:05Z</time>
      </trkpt>
      <trkpt lat="43.49226" lon="0.95674">
        <ele>188.09</ele>
        <time>2015-05-21T10:35:24Z</time>
      </trkpt>
      <trkpt lat="43.49229" lon="0.95677">
        <ele>188.47</ele>
        <time>2015-05-21T10:35:53Z</time>
      </trkpt>
      <trkpt lat="43.49227" lon="0.95674">
        <ele>188.32</ele>
        <time>2015-05-21T10:36:17Z</time>
      </trkpt>
      <trkpt lat="43.49212" lon="0.95663">
        <ele>188.94</ele>
        <time>2015-05-21T10:36:39Z</time>
      </trkpt>
      <trkpt lat="43.49198" lon="0.95646">
        <ele>190.2</ele>
        <time>2015-05-21T10:36:59Z</time>
      </trkpt>
      <trkpt lat="43.49181" lon="0.95634">
        <ele>191.1</ele>
        <time>2015-05-21T10:37:18Z</time>
      </trkpt>
      <trkpt lat="43.49173" lon="0.95628">
        <ele>191.11</ele>
        <time>2015-05-21T10:37:37Z</time>
      </trkpt>
      <trkpt lat="43.49168" lon="0.95637">
        <ele>190.09</ele>
        <time>2015-05-21T10:37:59Z</time>
      </trkpt>
      <trkpt lat="43.49166" lon="0.95661">
        <ele>188.41</ele>
        <time>2015-05-21T10:38:19Z</time>
      </trkpt>
      <trkpt lat="43.49161" lon="0.95689">
        <ele>186.42</ele>
        <time>2015-05-21T10:38:42Z</time>
      </trkpt>
      <trkpt lat="43.49159" lon="0.9572">
        <ele>184.84</ele>
        <time>2015-05-21T10:39:03Z</time>
      </trkpt>
      <trkpt lat="43.49157" lon="0.95752">
        <ele>183.13</ele>
        <time>2015-05-21T10:39:27Z</time>
      </trkpt>
      <trkpt lat="43.49151" lon="0.95783">
        <ele>181.1</ele>
        <time>2015-05-21T10:39:48Z</time>
      </trkpt>
      <trkpt lat="43.4915" lon="0.95809">
        <ele>179.43</ele>
        <time>2015-05-21T10:40:11Z</time>
      </trkpt>
      <trkpt lat="43.49146" lon="0.95839">
        <ele>177.69</ele>
        <time>2015-05-21T10:40:33Z</time>
      </trkpt>
      <trkpt lat="43.49141" lon="0.95874">
        <ele>175.76</ele>
        <time>2015-05-21T10:40:55Z</time>
      </trkpt>
      <trkpt lat="43.4914" lon="0.959">
        <ele>174.1</ele>
        <time>2015-05-21T10:41:15Z</time>
      </trkpt>
      <trkpt lat="43.49137" lon="0.95921">
        <ele>173</ele>
        <time>2015-05-21T10:41:33Z</time>
      </trkpt>
      <trkpt lat="43.49133" lon="0.95947">
        <ele>171.99</ele>
        <time>2015-05-21T10:41:56Z</time>
      </trkpt>
      <trkpt lat="43.49129" lon="0.95971">
        <ele>171.27</ele>
        <time>2015-05-21T10:42:21Z</time>
      </trkpt>
      <trkpt lat="43.49127" lon="0.9599">
        <ele>170.38</ele>
        <time>2015-05-21T10:42:42Z</time>
      </trkpt>
      <trkpt lat="43.49126" lon="0.96003">
        <ele>169.99</ele>
        <time>2015-05-21T10:43:07Z</time>
      </trkpt>
      <trkpt lat="43.49123" lon="0.9601">
        <ele>169.8</ele>
        <time>2015-05-21T10:43:28Z</time>
      </trkpt>
      <trkpt lat="43.49123" lon="0.96012">
        <ele>169.67</ele>
        <time>2015-05-21T10:43:49Z</time>
      </trkpt>
      <trkpt lat="43.49121" lon="0.96023">
        <ele>169.26</ele>
        <time>2015-05-21T10:44:09Z</time>
      </trkpt>
      <trkpt lat="43.49121" lon="0.96039">
        <ele>168.85</ele>
        <time>2015-05-21T10:44:27Z</time>
      </trkpt>
      <trkpt lat="43.4912" lon="0.96046">
        <ele>168.71</ele>
        <time>2015-05-21T10:44:54Z</time>
      </trkpt>
      <trkpt lat="43.49118" lon="0.96051">
        <ele>168.71</ele>
        <time>2015-05-21T10:45:23Z</time>
      </trkpt>
      <trkpt lat="43.49116" lon="0.96051">
        <ele>168.58</ele>
        <time>2015-05-21T10:45:46Z</time>
      </trkpt>
      <trkpt lat="43.49108" lon="0.9605">
        <ele>168.68</ele>
        <time>2015-05-21T10:46:09Z</time>
      </trkpt>
      <trkpt lat="43.49101" lon="0.96044">
        <ele>168.71</ele>
        <time>2015-05-21T10:46:25Z</time>
      </trkpt>
      <trkpt lat="43.49097" lon="0.96045">
        <ele>168.85</ele>
        <time>2015-05-21T10:46:46Z</time>
      </trkpt>
      <trkpt lat="43.49097" lon="0.96044">
        <ele>169.06</ele>
        <time>2015-05-21T10:47:07Z</time>
      </trkpt>
      <trkpt lat="43.491" lon="0.96041">
        <ele>171.41</ele>
        <time>2015-05-21T11:30:08Z</time>
      </trkpt>
      <trkpt lat="43.49099" lon="0.9604">
        <ele>171.46</ele>
        <time>2015-05-21T11:30:40Z</time>
      </trkpt>
      <trkpt lat="43.491" lon="0.96047">
        <ele>171.27</ele>
        <time>2015-05-21T11:31:05Z</time>
      </trkpt>
      <trkpt lat="43.491" lon="0.96047">
        <ele>170.99</ele>
        <time>2015-05-21T11:31:32Z</time>
      </trkpt>
      <trkpt lat="43.49098" lon="0.96046">
        <ele>171.57</ele>
        <time>2015-05-21T11:31:59Z</time>
      </trkpt>
      <trkpt lat="43.49098" lon="0.96063">
        <ele>171.14</ele>
        <time>2015-05-21T11:32:20Z</time>
      </trkpt>
      <trkpt lat="43.49096" lon="0.96081">
        <ele>169.64</ele>
        <time>2015-05-21T11:32:36Z</time>
      </trkpt>
      <trkpt lat="43.49096" lon="0.96083">
        <ele>169.57</ele>
        <time>2015-05-21T11:32:38Z</time>
      </trkpt>
      <trkpt lat="43.49094" lon="0.96106">
        <ele>169.49</ele>
        <time>2015-05-21T11:32:55Z</time>
      </trkpt>
      <trkpt lat="43.49091" lon="0.96126">
        <ele>168.32</ele>
        <time>2015-05-21T11:33:10Z</time>
      </trkpt>
      <trkpt lat="43.49088" lon="0.96147">
        <ele>167.02</ele>
        <time>2015-05-21T11:33:25Z</time>
      </trkpt>
      <trkpt lat="43.49086" lon="0.96169">
        <ele>166.54</ele>
        <time>2015-05-21T11:33:42Z</time>
      </trkpt>
      <trkpt lat="43.49083" lon="0.96191">
        <ele>166.01</ele>
        <time>2015-05-21T11:33:58Z</time>
      </trkpt>
      <trkpt lat="43.49079" lon="0.96211">
        <ele>165.28</ele>
        <time>2015-05-21T11:34:13Z</time>
      </trkpt>
      <trkpt lat="43.49076" lon="0.96231">
        <ele>165.1</ele>
        <time>2015-05-21T11:34:28Z</time>
      </trkpt>
      <trkpt lat="43.4908" lon="0.9625">
        <ele>164.64</ele>
        <time>2015-05-21T11:34:44Z</time>
      </trkpt>
      <trkpt lat="43.49091" lon="0.9627">
        <ele>164.82</ele>
        <time>2015-05-21T11:35:06Z</time>
      </trkpt>
      <trkpt lat="43.49088" lon="0.96287">
        <ele>165.58</ele>
        <time>2015-05-21T11:35:19Z</time>
      </trkpt>
      <trkpt lat="43.49091" lon="0.96298">
        <ele>165.13</ele>
        <time>2015-05-21T11:35:34Z</time>
      </trkpt>
      <trkpt lat="43.49088" lon="0.96291">
        <ele>165.24</ele>
        <time>2015-05-21T11:35:57Z</time>
      </trkpt>
      <trkpt lat="43.49092" lon="0.96283">
        <ele>165.33</ele>
        <time>2015-05-21T11:36:12Z</time>
      </trkpt>
      <trkpt lat="43.4909" lon="0.96283">
        <ele>165.4</ele>
        <time>2015-05-21T11:36:41Z</time>
      </trkpt>
      <trkpt lat="43.49091" lon="0.96278">
        <ele>165.32</ele>
        <time>2015-05-21T11:37:07Z</time>
      </trkpt>
      <trkpt lat="43.49098" lon="0.96278">
        <ele>165.57</ele>
        <time>2015-05-21T11:37:32Z</time>
      </trkpt>
      <trkpt lat="43.49102" lon="0.96281">
        <ele>165.03</ele>
        <time>2015-05-21T11:37:54Z</time>
      </trkpt>
      <trkpt lat="43.49105" lon="0.96301">
        <ele>165.42</ele>
        <time>2015-05-21T11:38:13Z</time>
      </trkpt>
      <trkpt lat="43.49112" lon="0.96317">
        <ele>165.28</ele>
        <time>2015-05-21T11:38:25Z</time>
      </trkpt>
      <trkpt lat="43.49121" lon="0.96328">
        <ele>165.25</ele>
        <time>2015-05-21T11:38:35Z</time>
      </trkpt>
      <trkpt lat="43.49136" lon="0.96344">
        <ele>164.91</ele>
        <time>2015-05-21T11:38:50Z</time>
      </trkpt>
      <trkpt lat="43.49156" lon="0.96366">
        <ele>165.28</ele>
        <time>2015-05-21T11:39:10Z</time>
      </trkpt>
      <trkpt lat="43.49173" lon="0.9639">
        <ele>165.23</ele>
        <time>2015-05-21T11:39:29Z</time>
      </trkpt>
      <trkpt lat="43.49189" lon="0.9642">
        <ele>165.34</ele>
        <time>2015-05-21T11:39:49Z</time>
      </trkpt>
      <trkpt lat="43.49192" lon="0.96425">
        <ele>165.23</ele>
        <time>2015-05-21T11:39:53Z</time>
      </trkpt>
      <trkpt lat="43.49194" lon="0.96433">
        <ele>165.29</ele>
        <time>2015-05-21T11:40:00Z</time>
      </trkpt>
      <trkpt lat="43.49201" lon="0.96451">
        <ele>165.35</ele>
        <time>2015-05-21T11:40:15Z</time>
      </trkpt>
      <trkpt lat="43.4919" lon="0.96462">
        <ele>165.51</ele>
        <time>2015-05-21T11:40:34Z</time>
      </trkpt>
      <trkpt lat="43.49184" lon="0.96463">
        <ele>165.01</ele>
        <time>2015-05-21T11:40:55Z</time>
      </trkpt>
      <trkpt lat="43.49179" lon="0.96467">
        <ele>165.27</ele>
        <time>2015-05-21T11:41:16Z</time>
      </trkpt>
      <trkpt lat="43.49168" lon="0.96472">
        <ele>165.58</ele>
        <time>2015-05-21T11:41:36Z</time>
      </trkpt>
      <trkpt lat="43.49155" lon="0.96466">
        <ele>166.87</ele>
        <time>2015-05-21T11:41:59Z</time>
      </trkpt>
      <trkpt lat="43.49145" lon="0.96469">
        <ele>167.44</ele>
        <time>2015-05-21T11:42:14Z</time>
      </trkpt>
      <trkpt lat="43.49131" lon="0.96477">
        <ele>166.26</ele>
        <time>2015-05-21T11:42:29Z</time>
      </trkpt>
      <trkpt lat="43.4912" lon="0.96484">
        <ele>166</ele>
        <time>2015-05-21T11:42:41Z</time>
      </trkpt>
      <trkpt lat="43.49105" lon="0.96494">
        <ele>166.36</ele>
        <time>2015-05-21T11:42:56Z</time>
      </trkpt>
      <trkpt lat="43.49089" lon="0.96508">
        <ele>166.2</ele>
        <time>2015-05-21T11:43:13Z</time>
      </trkpt>
      <trkpt lat="43.49073" lon="0.96523">
        <ele>166.16</ele>
        <time>2015-05-21T11:43:30Z</time>
      </trkpt>
      <trkpt lat="43.49069" lon="0.96529">
        <ele>166.13</ele>
        <time>2015-05-21T11:43:35Z</time>
      </trkpt>
      <trkpt lat="43.49055" lon="0.96544">
        <ele>165.88</ele>
        <time>2015-05-21T11:43:51Z</time>
      </trkpt>
      <trkpt lat="43.49037" lon="0.96563">
        <ele>165.93</ele>
        <time>2015-05-21T11:44:08Z</time>
      </trkpt>
      <trkpt lat="43.49021" lon="0.96578">
        <ele>165.76</ele>
        <time>2015-05-21T11:44:25Z</time>
      </trkpt>
      <trkpt lat="43.49004" lon="0.96597">
        <ele>165.77</ele>
        <time>2015-05-21T11:44:45Z</time>
      </trkpt>
      <trkpt lat="43.48992" lon="0.96609">
        <ele>166.17</ele>
        <time>2015-05-21T11:44:59Z</time>
      </trkpt>
      <trkpt lat="43.48979" lon="0.96624">
        <ele>166.51</ele>
        <time>2015-05-21T11:45:14Z</time>
      </trkpt>
      <trkpt lat="43.48964" lon="0.96638">
        <ele>166.63</ele>
        <time>2015-05-21T11:45:34Z</time>
      </trkpt>
      <trkpt lat="43.48948" lon="0.96656">
        <ele>167.1</ele>
        <time>2015-05-21T11:45:54Z</time>
      </trkpt>
      <trkpt lat="43.48933" lon="0.96679">
        <ele>167.38</ele>
        <time>2015-05-21T11:46:16Z</time>
      </trkpt>
      <trkpt lat="43.48916" lon="0.96699">
        <ele>167.84</ele>
        <time>2015-05-21T11:46:35Z</time>
      </trkpt>
      <trkpt lat="43.48903" lon="0.96725">
        <ele>168.29</ele>
        <time>2015-05-21T11:46:54Z</time>
      </trkpt>
      <trkpt lat="43.48892" lon="0.96753">
        <ele>168.94</ele>
        <time>2015-05-21T11:47:13Z</time>
      </trkpt>
      <trkpt lat="43.48887" lon="0.96768">
        <ele>169.13</ele>
        <time>2015-05-21T11:47:34Z</time>
      </trkpt>
      <trkpt lat="43.48879" lon="0.9679">
        <ele>169.5</ele>
        <time>2015-05-21T11:47:56Z</time>
      </trkpt>
      <trkpt lat="43.48875" lon="0.96804">
        <ele>169.79</ele>
        <time>2015-05-21T11:48:08Z</time>
      </trkpt>
      <trkpt lat="43.48873" lon="0.96812">
        <ele>169.79</ele>
        <time>2015-05-21T11:48:13Z</time>
      </trkpt>
      <trkpt lat="43.48867" lon="0.96836">
        <ele>169.96</ele>
        <time>2015-05-21T11:48:32Z</time>
      </trkpt>
      <trkpt lat="43.48866" lon="0.9684">
        <ele>170.68</ele>
        <time>2015-05-21T11:48:57Z</time>
      </trkpt>
      <trkpt lat="43.4886" lon="0.96846">
        <ele>170.75</ele>
        <time>2015-05-21T11:49:11Z</time>
      </trkpt>
      <trkpt lat="43.48857" lon="0.96844">
        <ele>170.84</ele>
        <time>2015-05-21T11:49:14Z</time>
      </trkpt>
      <trkpt lat="43.48854" lon="0.9684">
        <ele>170.91</ele>
        <time>2015-05-21T11:49:18Z</time>
      </trkpt>
      <trkpt lat="43.48836" lon="0.96822">
        <ele>172.04</ele>
        <time>2015-05-21T11:49:39Z</time>
      </trkpt>
      <trkpt lat="43.48818" lon="0.96805">
        <ele>173.59</ele>
        <time>2015-05-21T11:50:00Z</time>
      </trkpt>
      <trkpt lat="43.48805" lon="0.96792">
        <ele>174.69</ele>
        <time>2015-05-21T11:50:16Z</time>
      </trkpt>
      <trkpt lat="43.48788" lon="0.96776">
        <ele>175.55</ele>
        <time>2015-05-21T11:50:35Z</time>
      </trkpt>
      <trkpt lat="43.48767" lon="0.96756">
        <ele>175.99</ele>
        <time>2015-05-21T11:51:00Z</time>
      </trkpt>
      <trkpt lat="43.48749" lon="0.96739">
        <ele>177.11</ele>
        <time>2015-05-21T11:51:21Z</time>
      </trkpt>
      <trkpt lat="43.48734" lon="0.96725">
        <ele>178.32</ele>
        <time>2015-05-21T11:51:41Z</time>
      </trkpt>
      <trkpt lat="43.48718" lon="0.96714">
        <ele>179.86</ele>
        <time>2015-05-21T11:51:59Z</time>
      </trkpt>
      <trkpt lat="43.487" lon="0.96705">
        <ele>180.8</ele>
        <time>2015-05-21T11:52:18Z</time>
      </trkpt>
      <trkpt lat="43.48684" lon="0.96699">
        <ele>181.48</ele>
        <time>2015-05-21T11:52:35Z</time>
      </trkpt>
      <trkpt lat="43.48665" lon="0.96688">
        <ele>183.32</ele>
        <time>2015-05-21T11:52:54Z</time>
      </trkpt>
      <trkpt lat="43.48646" lon="0.96679">
        <ele>184.56</ele>
        <time>2015-05-21T11:53:13Z</time>
      </trkpt>
      <trkpt lat="43.48627" lon="0.96669">
        <ele>186.19</ele>
        <time>2015-05-21T11:53:33Z</time>
      </trkpt>
      <trkpt lat="43.48611" lon="0.9666">
        <ele>187.9</ele>
        <time>2015-05-21T11:53:50Z</time>
      </trkpt>
      <trkpt lat="43.48597" lon="0.96652">
        <ele>189.51</ele>
        <time>2015-05-21T11:54:05Z</time>
      </trkpt>
      <trkpt lat="43.48594" lon="0.96651">
        <ele>189.71</ele>
        <time>2015-05-21T11:54:08Z</time>
      </trkpt>
      <trkpt lat="43.48575" lon="0.96641">
        <ele>191.24</ele>
        <time>2015-05-21T11:54:28Z</time>
      </trkpt>
      <trkpt lat="43.48567" lon="0.96637">
        <ele>191.78</ele>
        <time>2015-05-21T11:54:37Z</time>
      </trkpt>
      <trkpt lat="43.48548" lon="0.9663">
        <ele>192.8</ele>
        <time>2015-05-21T11:54:55Z</time>
      </trkpt>
      <trkpt lat="43.48546" lon="0.96629">
        <ele>192.94</ele>
        <time>2015-05-21T11:54:57Z</time>
      </trkpt>
      <trkpt lat="43.48529" lon="0.9662">
        <ele>194.73</ele>
        <time>2015-05-21T11:55:14Z</time>
      </trkpt>
      <trkpt lat="43.48511" lon="0.96611">
        <ele>196.37</ele>
        <time>2015-05-21T11:55:31Z</time>
      </trkpt>
      <trkpt lat="43.48493" lon="0.96599">
        <ele>195.89</ele>
        <time>2015-05-21T11:55:50Z</time>
      </trkpt>
      <trkpt lat="43.48478" lon="0.96596">
        <ele>193.89</ele>
        <time>2015-05-21T11:56:06Z</time>
      </trkpt>
      <trkpt lat="43.48477" lon="0.96595">
        <ele>193.75</ele>
        <time>2015-05-21T11:56:07Z</time>
      </trkpt>
      <trkpt lat="43.48461" lon="0.96602">
        <ele>192.5</ele>
        <time>2015-05-21T11:56:21Z</time>
      </trkpt>
      <trkpt lat="43.48456" lon="0.96611">
        <ele>192.9</ele>
        <time>2015-05-21T11:56:29Z</time>
      </trkpt>
      <trkpt lat="43.4845" lon="0.96626">
        <ele>193.97</ele>
        <time>2015-05-21T11:56:39Z</time>
      </trkpt>
      <trkpt lat="43.48448" lon="0.96632">
        <ele>194.24</ele>
        <time>2015-05-21T11:56:43Z</time>
      </trkpt>
      <trkpt lat="43.48441" lon="0.96656">
        <ele>195.96</ele>
        <time>2015-05-21T11:57:00Z</time>
      </trkpt>
      <trkpt lat="43.48434" lon="0.96682">
        <ele>197.25</ele>
        <time>2015-05-21T11:57:17Z</time>
      </trkpt>
      <trkpt lat="43.48426" lon="0.96711">
        <ele>197.87</ele>
        <time>2015-05-21T11:57:36Z</time>
      </trkpt>
      <trkpt lat="43.48418" lon="0.9674">
        <ele>198.67</ele>
        <time>2015-05-21T11:57:55Z</time>
      </trkpt>
      <trkpt lat="43.48408" lon="0.96765">
        <ele>199.28</ele>
        <time>2015-05-21T11:58:12Z</time>
      </trkpt>
      <trkpt lat="43.48391" lon="0.96771">
        <ele>199.54</ele>
        <time>2015-05-21T11:58:28Z</time>
      </trkpt>
      <trkpt lat="43.4837" lon="0.96772">
        <ele>200.32</ele>
        <time>2015-05-21T11:58:47Z</time>
      </trkpt>
      <trkpt lat="43.48351" lon="0.96773">
        <ele>201.37</ele>
        <time>2015-05-21T11:59:03Z</time>
      </trkpt>
      <trkpt lat="43.48329" lon="0.96773">
        <ele>202.13</ele>
        <time>2015-05-21T11:59:21Z</time>
      </trkpt>
      <trkpt lat="43.48306" lon="0.96771">
        <ele>202.75</ele>
        <time>2015-05-21T11:59:41Z</time>
      </trkpt>
      <trkpt lat="43.48282" lon="0.96767">
        <ele>202.61</ele>
        <time>2015-05-21T12:00:00Z</time>
      </trkpt>
      <trkpt lat="43.48259" lon="0.96759">
        <ele>201.82</ele>
        <time>2015-05-21T12:00:18Z</time>
      </trkpt>
      <trkpt lat="43.48238" lon="0.96751">
        <ele>200.36</ele>
        <time>2015-05-21T12:00:36Z</time>
      </trkpt>
      <trkpt lat="43.48214" lon="0.96743">
        <ele>198.45</ele>
        <time>2015-05-21T12:00:55Z</time>
      </trkpt>
      <trkpt lat="43.48193" lon="0.96734">
        <ele>196.91</ele>
        <time>2015-05-21T12:01:13Z</time>
      </trkpt>
      <trkpt lat="43.4817" lon="0.96726">
        <ele>196.24</ele>
        <time>2015-05-21T12:01:31Z</time>
      </trkpt>
      <trkpt lat="43.48151" lon="0.96719">
        <ele>195.86</ele>
        <time>2015-05-21T12:01:47Z</time>
      </trkpt>
      <trkpt lat="43.48134" lon="0.96712">
        <ele>195.52</ele>
        <time>2015-05-21T12:02:04Z</time>
      </trkpt>
      <trkpt lat="43.48131" lon="0.96708">
        <ele>195.6</ele>
        <time>2015-05-21T12:02:26Z</time>
      </trkpt>
      <trkpt lat="43.4813" lon="0.96707">
        <ele>195.07</ele>
        <time>2015-05-21T12:02:57Z</time>
      </trkpt>
      <trkpt lat="43.48129" lon="0.96706">
        <ele>195.18</ele>
        <time>2015-05-21T12:03:28Z</time>
      </trkpt>
      <trkpt lat="43.4813" lon="0.96705">
        <ele>195.14</ele>
        <time>2015-05-21T12:03:50Z</time>
      </trkpt>
      <trkpt lat="43.48126" lon="0.96703">
        <ele>195.79</ele>
        <time>2015-05-21T12:04:20Z</time>
      </trkpt>
      <trkpt lat="43.48131" lon="0.96689">
        <ele>194.61</ele>
        <time>2015-05-21T12:04:36Z</time>
      </trkpt>
      <trkpt lat="43.48133" lon="0.96686">
        <ele>194.68</ele>
        <time>2015-05-21T12:04:40Z</time>
      </trkpt>
      <trkpt lat="43.48143" lon="0.96668">
        <ele>193.62</ele>
        <time>2015-05-21T12:04:56Z</time>
      </trkpt>
      <trkpt lat="43.48155" lon="0.96646">
        <ele>192.5</ele>
        <time>2015-05-21T12:05:15Z</time>
      </trkpt>
      <trkpt lat="43.48166" lon="0.96618">
        <ele>190.83</ele>
        <time>2015-05-21T12:05:35Z</time>
      </trkpt>
      <trkpt lat="43.48177" lon="0.96596">
        <ele>189.56</ele>
        <time>2015-05-21T12:05:52Z</time>
      </trkpt>
      <trkpt lat="43.4819" lon="0.96567">
        <ele>187.8</ele>
        <time>2015-05-21T12:06:14Z</time>
      </trkpt>
      <trkpt lat="43.48202" lon="0.96542">
        <ele>187.32</ele>
        <time>2015-05-21T12:06:33Z</time>
      </trkpt>
      <trkpt lat="43.48216" lon="0.9651">
        <ele>186.21</ele>
        <time>2015-05-21T12:06:56Z</time>
      </trkpt>
      <trkpt lat="43.48229" lon="0.9648">
        <ele>184.45</ele>
        <time>2015-05-21T12:07:17Z</time>
      </trkpt>
      <trkpt lat="43.48237" lon="0.96446">
        <ele>183.07</ele>
        <time>2015-05-21T12:07:38Z</time>
      </trkpt>
      <trkpt lat="43.48243" lon="0.96409">
        <ele>181.39</ele>
        <time>2015-05-21T12:08:00Z</time>
      </trkpt>
      <trkpt lat="43.4825" lon="0.96372">
        <ele>179.84</ele>
        <time>2015-05-21T12:08:22Z</time>
      </trkpt>
      <trkpt lat="43.48254" lon="0.96344">
        <ele>179.09</ele>
        <time>2015-05-21T12:08:39Z</time>
      </trkpt>
      <trkpt lat="43.48256" lon="0.9633">
        <ele>178.17</ele>
        <time>2015-05-21T12:08:54Z</time>
      </trkpt>
      <trkpt lat="43.48257" lon="0.96328">
        <ele>178.17</ele>
        <time>2015-05-21T12:08:55Z</time>
      </trkpt>
      <trkpt lat="43.48257" lon="0.96323">
        <ele>178.25</ele>
        <time>2015-05-21T12:08:59Z</time>
      </trkpt>
      <trkpt lat="43.48262" lon="0.96291">
        <ele>176.82</ele>
        <time>2015-05-21T12:09:19Z</time>
      </trkpt>
      <trkpt lat="43.48266" lon="0.96252">
        <ele>174.84</ele>
        <time>2015-05-21T12:09:42Z</time>
      </trkpt>
      <trkpt lat="43.4827" lon="0.96221">
        <ele>173.82</ele>
        <time>2015-05-21T12:10:02Z</time>
      </trkpt>
      <trkpt lat="43.48275" lon="0.9619">
        <ele>172.5</ele>
        <time>2015-05-21T12:10:20Z</time>
      </trkpt>
      <trkpt lat="43.48286" lon="0.96157">
        <ele>170.32</ele>
        <time>2015-05-21T12:10:41Z</time>
      </trkpt>
      <trkpt lat="43.483" lon="0.96127">
        <ele>169.06</ele>
        <time>2015-05-21T12:11:02Z</time>
      </trkpt>
      <trkpt lat="43.48311" lon="0.96103">
        <ele>168.85</ele>
        <time>2015-05-21T12:11:20Z</time>
      </trkpt>
      <trkpt lat="43.48325" lon="0.96074">
        <ele>168.52</ele>
        <time>2015-05-21T12:11:42Z</time>
      </trkpt>
      <trkpt lat="43.48338" lon="0.96041">
        <ele>167.9</ele>
        <time>2015-05-21T12:12:05Z</time>
      </trkpt>
      <trkpt lat="43.48349" lon="0.96014">
        <ele>167.63</ele>
        <time>2015-05-21T12:12:25Z</time>
      </trkpt>
      <trkpt lat="43.48362" lon="0.95978">
        <ele>167.55</ele>
        <time>2015-05-21T12:12:50Z</time>
      </trkpt>
      <trkpt lat="43.48373" lon="0.95948">
        <ele>168.17</ele>
        <time>2015-05-21T12:13:11Z</time>
      </trkpt>
      <trkpt lat="43.48384" lon="0.95919">
        <ele>167.63</ele>
        <time>2015-05-21T12:13:31Z</time>
      </trkpt>
      <trkpt lat="43.48393" lon="0.95894">
        <ele>168.24</ele>
        <time>2015-05-21T12:13:47Z</time>
      </trkpt>
      <trkpt lat="43.48397" lon="0.95885">
        <ele>168.32</ele>
        <time>2015-05-21T12:13:54Z</time>
      </trkpt>
      <trkpt lat="43.48405" lon="0.95865">
        <ele>168.67</ele>
        <time>2015-05-21T12:14:08Z</time>
      </trkpt>
      <trkpt lat="43.48415" lon="0.9584">
        <ele>169.11</ele>
        <time>2015-05-21T12:14:26Z</time>
      </trkpt>
      <trkpt lat="43.48424" lon="0.95814">
        <ele>169.43</ele>
        <time>2015-05-21T12:14:44Z</time>
      </trkpt>
      <trkpt lat="43.48437" lon="0.95782">
        <ele>169.35</ele>
        <time>2015-05-21T12:15:08Z</time>
      </trkpt>
      <trkpt lat="43.48446" lon="0.95748">
        <ele>168.66</ele>
        <time>2015-05-21T12:15:28Z</time>
      </trkpt>
      <trkpt lat="43.48451" lon="0.95715">
        <ele>167.45</ele>
        <time>2015-05-21T12:15:48Z</time>
      </trkpt>
      <trkpt lat="43.48451" lon="0.95683">
        <ele>167.94</ele>
        <time>2015-05-21T12:16:08Z</time>
      </trkpt>
      <trkpt lat="43.48445" lon="0.9564">
        <ele>168.75</ele>
        <time>2015-05-21T12:16:33Z</time>
      </trkpt>
      <trkpt lat="43.48436" lon="0.95592">
        <ele>168.9</ele>
        <time>2015-05-21T12:17:01Z</time>
      </trkpt>
      <trkpt lat="43.4843" lon="0.95567">
        <ele>168.98</ele>
        <time>2015-05-21T12:17:16Z</time>
      </trkpt>
      <trkpt lat="43.48424" lon="0.95535">
        <ele>169.22</ele>
        <time>2015-05-21T12:17:36Z</time>
      </trkpt>
      <trkpt lat="43.48417" lon="0.95504">
        <ele>169.05</ele>
        <time>2015-05-21T12:17:55Z</time>
      </trkpt>
      <trkpt lat="43.48415" lon="0.95465">
        <ele>169.74</ele>
        <time>2015-05-21T12:18:20Z</time>
      </trkpt>
      <trkpt lat="43.48415" lon="0.95458">
        <ele>170.49</ele>
        <time>2015-05-21T12:18:37Z</time>
      </trkpt>
      <trkpt lat="43.48415" lon="0.95457">
        <ele>170.22</ele>
        <time>2015-05-21T12:19:04Z</time>
      </trkpt>
      <trkpt lat="43.48412" lon="0.95455">
        <ele>169.96</ele>
        <time>2015-05-21T12:19:24Z</time>
      </trkpt>
      <trkpt lat="43.48411" lon="0.95456">
        <ele>170.08</ele>
        <time>2015-05-21T12:19:51Z</time>
      </trkpt>
      <trkpt lat="43.48412" lon="0.95456">
        <ele>170.19</ele>
        <time>2015-05-21T12:20:16Z</time>
      </trkpt>
      <trkpt lat="43.48412" lon="0.95456">
        <ele>170.17</ele>
        <time>2015-05-21T12:20:42Z</time>
      </trkpt>
      <trkpt lat="43.48413" lon="0.95457">
        <ele>170.25</ele>
        <time>2015-05-21T12:21:05Z</time>
      </trkpt>
      <trkpt lat="43.48412" lon="0.95457">
        <ele>169.9</ele>
        <time>2015-05-21T12:21:26Z</time>
      </trkpt>
      <trkpt lat="43.48406" lon="0.95462">
        <ele>169.97</ele>
        <time>2015-05-21T12:21:46Z</time>
      </trkpt>
      <trkpt lat="43.484" lon="0.95475">
        <ele>169.84</ele>
        <time>2015-05-21T12:22:06Z</time>
      </trkpt>
      <trkpt lat="43.48391" lon="0.95501">
        <ele>169.79</ele>
        <time>2015-05-21T12:22:26Z</time>
      </trkpt>
      <trkpt lat="43.48378" lon="0.95519">
        <ele>169.38</ele>
        <time>2015-05-21T12:22:44Z</time>
      </trkpt>
      <trkpt lat="43.48377" lon="0.95518">
        <ele>169.32</ele>
        <time>2015-05-21T12:22:45Z</time>
      </trkpt>
      <trkpt lat="43.48359" lon="0.95504">
        <ele>168.96</ele>
        <time>2015-05-21T12:23:03Z</time>
      </trkpt>
      <trkpt lat="43.48344" lon="0.95489">
        <ele>169.48</ele>
        <time>2015-05-21T12:23:20Z</time>
      </trkpt>
      <trkpt lat="43.4833" lon="0.95475">
        <ele>169.83</ele>
        <time>2015-05-21T12:23:36Z</time>
      </trkpt>
      <trkpt lat="43.48317" lon="0.95464">
        <ele>169.49</ele>
        <time>2015-05-21T12:23:51Z</time>
      </trkpt>
      <trkpt lat="43.48303" lon="0.95451">
        <ele>169.65</ele>
        <time>2015-05-21T12:24:07Z</time>
      </trkpt>
      <trkpt lat="43.48283" lon="0.95435">
        <ele>170.99</ele>
        <time>2015-05-21T12:24:27Z</time>
      </trkpt>
      <trkpt lat="43.48273" lon="0.95428">
        <ele>171.22</ele>
        <time>2015-05-21T12:24:39Z</time>
      </trkpt>
      <trkpt lat="43.48265" lon="0.95422">
        <ele>171.58</ele>
        <time>2015-05-21T12:24:50Z</time>
      </trkpt>
      <trkpt lat="43.48249" lon="0.95407">
        <ele>171.85</ele>
        <time>2015-05-21T12:25:09Z</time>
      </trkpt>
      <trkpt lat="43.48244" lon="0.95399">
        <ele>172</ele>
        <time>2015-05-21T12:25:18Z</time>
      </trkpt>
      <trkpt lat="43.4823" lon="0.95385">
        <ele>172.37</ele>
        <time>2015-05-21T12:25:34Z</time>
      </trkpt>
      <trkpt lat="43.48213" lon="0.95367">
        <ele>172.88</ele>
        <time>2015-05-21T12:25:55Z</time>
      </trkpt>
      <trkpt lat="43.48202" lon="0.95357">
        <ele>172.74</ele>
        <time>2015-05-21T12:26:09Z</time>
      </trkpt>
      <trkpt lat="43.48185" lon="0.95343">
        <ele>172.5</ele>
        <time>2015-05-21T12:26:30Z</time>
      </trkpt>
      <trkpt lat="43.4817" lon="0.95329">
        <ele>172.58</ele>
        <time>2015-05-21T12:26:48Z</time>
      </trkpt>
      <trkpt lat="43.48148" lon="0.95309">
        <ele>172.96</ele>
        <time>2015-05-21T12:27:11Z</time>
      </trkpt>
      <trkpt lat="43.48142" lon="0.95305">
        <ele>172.96</ele>
        <time>2015-05-21T12:27:17Z</time>
      </trkpt>
      <trkpt lat="43.48123" lon="0.95288">
        <ele>173.14</ele>
        <time>2015-05-21T12:27:35Z</time>
      </trkpt>
      <trkpt lat="43.48113" lon="0.95278">
        <ele>173.35</ele>
        <time>2015-05-21T12:27:48Z</time>
      </trkpt>
      <trkpt lat="43.48097" lon="0.95264">
        <ele>173.53</ele>
        <time>2015-05-21T12:28:04Z</time>
      </trkpt>
      <trkpt lat="43.48083" lon="0.9525">
        <ele>173.67</ele>
        <time>2015-05-21T12:28:19Z</time>
      </trkpt>
      <trkpt lat="43.48063" lon="0.95235">
        <ele>173.71</ele>
        <time>2015-05-21T12:28:39Z</time>
      </trkpt>
      <trkpt lat="43.48043" lon="0.95217">
        <ele>174.09</ele>
        <time>2015-05-21T12:29:00Z</time>
      </trkpt>
      <trkpt lat="43.48041" lon="0.95211">
        <ele>174.85</ele>
        <time>2015-05-21T12:29:21Z</time>
      </trkpt>
      <trkpt lat="43.48041" lon="0.95209">
        <ele>174.81</ele>
        <time>2015-05-21T12:29:46Z</time>
      </trkpt>
      <trkpt lat="43.48047" lon="0.95193">
        <ele>175.26</ele>
        <time>2015-05-21T12:30:06Z</time>
      </trkpt>
      <trkpt lat="43.48048" lon="0.95191">
        <ele>175.36</ele>
        <time>2015-05-21T12:30:08Z</time>
      </trkpt>
      <trkpt lat="43.48053" lon="0.95174">
        <ele>175.84</ele>
        <time>2015-05-21T12:30:20Z</time>
      </trkpt>
      <trkpt lat="43.48059" lon="0.95154">
        <ele>176.22</ele>
        <time>2015-05-21T12:30:36Z</time>
      </trkpt>
      <trkpt lat="43.48064" lon="0.95134">
        <ele>176.71</ele>
        <time>2015-05-21T12:30:51Z</time>
      </trkpt>
      <trkpt lat="43.48071" lon="0.95109">
        <ele>178.11</ele>
        <time>2015-05-21T12:31:13Z</time>
      </trkpt>
      <trkpt lat="43.48075" lon="0.95078">
        <ele>180.07</ele>
        <time>2015-05-21T12:31:39Z</time>
      </trkpt>
      <trkpt lat="43.4808" lon="0.95055">
        <ele>181.21</ele>
        <time>2015-05-21T12:31:59Z</time>
      </trkpt>
      <trkpt lat="43.48087" lon="0.95035">
        <ele>182.91</ele>
        <time>2015-05-21T12:32:20Z</time>
      </trkpt>
      <trkpt lat="43.48092" lon="0.95002">
        <ele>185.08</ele>
        <time>2015-05-21T12:32:45Z</time>
      </trkpt>
      <trkpt lat="43.48098" lon="0.9498">
        <ele>186.54</ele>
        <time>2015-05-21T12:33:05Z</time>
      </trkpt>
      <trkpt lat="43.48107" lon="0.94956">
        <ele>187.78</ele>
        <time>2015-05-21T12:33:25Z</time>
      </trkpt>
      <trkpt lat="43.4812" lon="0.94931">
        <ele>189.38</ele>
        <time>2015-05-21T12:33:47Z</time>
      </trkpt>
      <trkpt lat="43.48129" lon="0.94911">
        <ele>189.94</ele>
        <time>2015-05-21T12:34:08Z</time>
      </trkpt>
      <trkpt lat="43.48138" lon="0.94891">
        <ele>190.88</ele>
        <time>2015-05-21T12:34:24Z</time>
      </trkpt>
      <trkpt lat="43.48144" lon="0.94868">
        <ele>192.06</ele>
        <time>2015-05-21T12:34:43Z</time>
      </trkpt>
      <trkpt lat="43.48152" lon="0.94843">
        <ele>193.94</ele>
        <time>2015-05-21T12:35:06Z</time>
      </trkpt>
      <trkpt lat="43.48158" lon="0.9482">
        <ele>194.55</ele>
        <time>2015-05-21T12:35:25Z</time>
      </trkpt>
      <trkpt lat="43.48161" lon="0.94806">
        <ele>194.88</ele>
        <time>2015-05-21T12:35:35Z</time>
      </trkpt>
      <trkpt lat="43.48168" lon="0.94781">
        <ele>195.76</ele>
        <time>2015-05-21T12:35:53Z</time>
      </trkpt>
      <trkpt lat="43.48176" lon="0.94758">
        <ele>196.77</ele>
        <time>2015-05-21T12:36:10Z</time>
      </trkpt>
      <trkpt lat="43.48182" lon="0.94735">
        <ele>197.49</ele>
        <time>2015-05-21T12:36:29Z</time>
      </trkpt>
      <trkpt lat="43.48193" lon="0.94706">
        <ele>198.69</ele>
        <time>2015-05-21T12:36:50Z</time>
      </trkpt>
      <trkpt lat="43.482" lon="0.94686">
        <ele>199.02</ele>
        <time>2015-05-21T12:37:05Z</time>
      </trkpt>
      <trkpt lat="43.48207" lon="0.94663">
        <ele>199.71</ele>
        <time>2015-05-21T12:37:23Z</time>
      </trkpt>
      <trkpt lat="43.48214" lon="0.94639">
        <ele>201.03</ele>
        <time>2015-05-21T12:37:40Z</time>
      </trkpt>
      <trkpt lat="43.48222" lon="0.94616">
        <ele>201.89</ele>
        <time>2015-05-21T12:37:58Z</time>
      </trkpt>
      <trkpt lat="43.48229" lon="0.94595">
        <ele>202.56</ele>
        <time>2015-05-21T12:38:15Z</time>
      </trkpt>
      <trkpt lat="43.48237" lon="0.94575">
        <ele>203.69</ele>
        <time>2015-05-21T12:38:30Z</time>
      </trkpt>
      <trkpt lat="43.48245" lon="0.94553">
        <ele>204.65</ele>
        <time>2015-05-21T12:38:46Z</time>
      </trkpt>
      <trkpt lat="43.48255" lon="0.94529">
        <ele>206.05</ele>
        <time>2015-05-21T12:39:04Z</time>
      </trkpt>
      <trkpt lat="43.48258" lon="0.94523">
        <ele>206.34</ele>
        <time>2015-05-21T12:39:09Z</time>
      </trkpt>
      <trkpt lat="43.48267" lon="0.94503">
        <ele>206.88</ele>
        <time>2015-05-21T12:39:24Z</time>
      </trkpt>
      <trkpt lat="43.48277" lon="0.94482">
        <ele>207.01</ele>
        <time>2015-05-21T12:39:41Z</time>
      </trkpt>
      <trkpt lat="43.48278" lon="0.94474">
        <ele>207.44</ele>
        <time>2015-05-21T12:40:01Z</time>
      </trkpt>
      <trkpt lat="43.48265" lon="0.9446">
        <ele>208.17</ele>
        <time>2015-05-21T12:40:22Z</time>
      </trkpt>
      <trkpt lat="43.48256" lon="0.94453">
        <ele>208.28</ele>
        <time>2015-05-21T12:40:46Z</time>
      </trkpt>
      <trkpt lat="43.48255" lon="0.94453">
        <ele>208.52</ele>
        <time>2015-05-21T12:41:04Z</time>
      </trkpt>
      <trkpt lat="43.4825" lon="0.94444">
        <ele>208.59</ele>
        <time>2015-05-21T12:41:11Z</time>
      </trkpt>
      <trkpt lat="43.4825" lon="0.94438">
        <ele>208.41</ele>
        <time>2015-05-21T12:41:15Z</time>
      </trkpt>
      <trkpt lat="43.48254" lon="0.94415">
        <ele>207.22</ele>
        <time>2015-05-21T12:41:31Z</time>
      </trkpt>
      <trkpt lat="43.48254" lon="0.94413">
        <ele>207.17</ele>
        <time>2015-05-21T12:41:32Z</time>
      </trkpt>
      <trkpt lat="43.48255" lon="0.94378">
        <ele>205.61</ele>
        <time>2015-05-21T12:41:53Z</time>
      </trkpt>
      <trkpt lat="43.48258" lon="0.94353">
        <ele>203.96</ele>
        <time>2015-05-21T12:42:10Z</time>
      </trkpt>
      <trkpt lat="43.48261" lon="0.94323">
        <ele>201.9</ele>
        <time>2015-05-21T12:42:29Z</time>
      </trkpt>
      <trkpt lat="43.48264" lon="0.94296">
        <ele>200.26</ele>
        <time>2015-05-21T12:42:46Z</time>
      </trkpt>
      <trkpt lat="43.48266" lon="0.94274">
        <ele>198.41</ele>
        <time>2015-05-21T12:43:01Z</time>
      </trkpt>
      <trkpt lat="43.48268" lon="0.94254">
        <ele>196.34</ele>
        <time>2015-05-21T12:43:17Z</time>
      </trkpt>
      <trkpt lat="43.48271" lon="0.94225">
        <ele>194.33</ele>
        <time>2015-05-21T12:43:39Z</time>
      </trkpt>
      <trkpt lat="43.48272" lon="0.94199">
        <ele>192.69</ele>
        <time>2015-05-21T12:43:57Z</time>
      </trkpt>
      <trkpt lat="43.48273" lon="0.94171">
        <ele>191.26</ele>
        <time>2015-05-21T12:44:17Z</time>
      </trkpt>
      <trkpt lat="43.48274" lon="0.94141">
        <ele>190.03</ele>
        <time>2015-05-21T12:44:36Z</time>
      </trkpt>
      <trkpt lat="43.48274" lon="0.94126">
        <ele>188.61</ele>
        <time>2015-05-21T12:44:49Z</time>
      </trkpt>
      <trkpt lat="43.48275" lon="0.94122">
        <ele>188.55</ele>
        <time>2015-05-21T12:44:52Z</time>
      </trkpt>
      <trkpt lat="43.48281" lon="0.94091">
        <ele>187.32</ele>
        <time>2015-05-21T12:45:11Z</time>
      </trkpt>
      <trkpt lat="43.48292" lon="0.94073">
        <ele>186.52</ele>
        <time>2015-05-21T12:45:27Z</time>
      </trkpt>
      <trkpt lat="43.48295" lon="0.94069">
        <ele>186.32</ele>
        <time>2015-05-21T12:45:32Z</time>
      </trkpt>
      <trkpt lat="43.48306" lon="0.94048">
        <ele>185.53</ele>
        <time>2015-05-21T12:45:49Z</time>
      </trkpt>
      <trkpt lat="43.48312" lon="0.94029">
        <ele>184.95</ele>
        <time>2015-05-21T12:46:05Z</time>
      </trkpt>
      <trkpt lat="43.48319" lon="0.94013">
        <ele>184.15</ele>
        <time>2015-05-21T12:46:21Z</time>
      </trkpt>
      <trkpt lat="43.48326" lon="0.93992">
        <ele>183.29</ele>
        <time>2015-05-21T12:46:36Z</time>
      </trkpt>
      <trkpt lat="43.48329" lon="0.93987">
        <ele>183.23</ele>
        <time>2015-05-21T12:46:41Z</time>
      </trkpt>
      <trkpt lat="43.48342" lon="0.93968">
        <ele>181.66</ele>
        <time>2015-05-21T12:46:59Z</time>
      </trkpt>
      <trkpt lat="43.48354" lon="0.9395">
        <ele>180.5</ele>
        <time>2015-05-21T12:47:17Z</time>
      </trkpt>
      <trkpt lat="43.48367" lon="0.93926">
        <ele>178.98</ele>
        <time>2015-05-21T12:47:35Z</time>
      </trkpt>
      <trkpt lat="43.4837" lon="0.93916">
        <ele>178.32</ele>
        <time>2015-05-21T12:47:43Z</time>
      </trkpt>
      <trkpt lat="43.48378" lon="0.93892">
        <ele>176.77</ele>
        <time>2015-05-21T12:48:00Z</time>
      </trkpt>
      <trkpt lat="43.48388" lon="0.93858">
        <ele>175.09</ele>
        <time>2015-05-21T12:48:21Z</time>
      </trkpt>
      <trkpt lat="43.48399" lon="0.93833">
        <ele>174.05</ele>
        <time>2015-05-21T12:48:41Z</time>
      </trkpt>
      <trkpt lat="43.48411" lon="0.93806">
        <ele>173.15</ele>
        <time>2015-05-21T12:49:01Z</time>
      </trkpt>
      <trkpt lat="43.48419" lon="0.93787">
        <ele>172.25</ele>
        <time>2015-05-21T12:49:17Z</time>
      </trkpt>
      <trkpt lat="43.48426" lon="0.93764">
        <ele>171.69</ele>
        <time>2015-05-21T12:49:33Z</time>
      </trkpt>
      <trkpt lat="43.48428" lon="0.93759">
        <ele>171.49</ele>
        <time>2015-05-21T12:49:37Z</time>
      </trkpt>
      <trkpt lat="43.48431" lon="0.93753">
        <ele>171.38</ele>
        <time>2015-05-21T12:49:42Z</time>
      </trkpt>
      <trkpt lat="43.48443" lon="0.93732">
        <ele>170.9</ele>
        <time>2015-05-21T12:50:01Z</time>
      </trkpt>
      <trkpt lat="43.48454" lon="0.93709">
        <ele>170.85</ele>
        <time>2015-05-21T12:50:19Z</time>
      </trkpt>
      <trkpt lat="43.48458" lon="0.93694">
        <ele>170.67</ele>
        <time>2015-05-21T12:50:33Z</time>
      </trkpt>
      <trkpt lat="43.48468" lon="0.93676">
        <ele>170.15</ele>
        <time>2015-05-21T12:50:49Z</time>
      </trkpt>
      <trkpt lat="43.48474" lon="0.93663">
        <ele>169.8</ele>
        <time>2015-05-21T12:51:05Z</time>
      </trkpt>
      <trkpt lat="43.48475" lon="0.93648">
        <ele>169.67</ele>
        <time>2015-05-21T12:51:22Z</time>
      </trkpt>
      <trkpt lat="43.48462" lon="0.93631">
        <ele>169.55</ele>
        <time>2015-05-21T12:51:44Z</time>
      </trkpt>
      <trkpt lat="43.48452" lon="0.93613">
        <ele>169.78</ele>
        <time>2015-05-21T12:52:04Z</time>
      </trkpt>
      <trkpt lat="43.48449" lon="0.93608">
        <ele>169.79</ele>
        <time>2015-05-21T12:52:27Z</time>
      </trkpt>
      <trkpt lat="43.48447" lon="0.93605">
        <ele>170.23</ele>
        <time>2015-05-21T12:52:51Z</time>
      </trkpt>
      <trkpt lat="43.48455" lon="0.93597">
        <ele>170.21</ele>
        <time>2015-05-21T12:53:09Z</time>
      </trkpt>
      <trkpt lat="43.48472" lon="0.93585">
        <ele>169.88</ele>
        <time>2015-05-21T12:53:30Z</time>
      </trkpt>
      <trkpt lat="43.48495" lon="0.93576">
        <ele>169.5</ele>
        <time>2015-05-21T12:53:49Z</time>
      </trkpt>
      <trkpt lat="43.48517" lon="0.93565">
        <ele>169.47</ele>
        <time>2015-05-21T12:54:13Z</time>
      </trkpt>
      <trkpt lat="43.48528" lon="0.93559">
        <ele>169.61</ele>
        <time>2015-05-21T12:54:22Z</time>
      </trkpt>
      <trkpt lat="43.48547" lon="0.93548">
        <ele>169.63</ele>
        <time>2015-05-21T12:54:39Z</time>
      </trkpt>
      <trkpt lat="43.48567" lon="0.93535">
        <ele>169.94</ele>
        <time>2015-05-21T12:55:02Z</time>
      </trkpt>
      <trkpt lat="43.48584" lon="0.93525">
        <ele>169.54</ele>
        <time>2015-05-21T12:55:21Z</time>
      </trkpt>
      <trkpt lat="43.48601" lon="0.93519">
        <ele>169.45</ele>
        <time>2015-05-21T12:55:40Z</time>
      </trkpt>
      <trkpt lat="43.48619" lon="0.93511">
        <ele>168.82</ele>
        <time>2015-05-21T12:55:58Z</time>
      </trkpt>
      <trkpt lat="43.48628" lon="0.93506">
        <ele>168.84</ele>
        <time>2015-05-21T12:56:07Z</time>
      </trkpt>
      <trkpt lat="43.4865" lon="0.93492">
        <ele>168.94</ele>
        <time>2015-05-21T12:56:25Z</time>
      </trkpt>
      <trkpt lat="43.48665" lon="0.9348">
        <ele>169.28</ele>
        <time>2015-05-21T12:56:42Z</time>
      </trkpt>
      <trkpt lat="43.48683" lon="0.93474">
        <ele>169.49</ele>
        <time>2015-05-21T12:56:59Z</time>
      </trkpt>
      <trkpt lat="43.48693" lon="0.93471">
        <ele>169.76</ele>
        <time>2015-05-21T12:57:09Z</time>
      </trkpt>
      <trkpt lat="43.48699" lon="0.93469">
        <ele>169.86</ele>
        <time>2015-05-21T12:57:14Z</time>
      </trkpt>
      <trkpt lat="43.48709" lon="0.93462">
        <ele>169.62</ele>
        <time>2015-05-21T12:57:27Z</time>
      </trkpt>
      <trkpt lat="43.48725" lon="0.93471">
        <ele>168.51</ele>
        <time>2015-05-21T12:57:45Z</time>
      </trkpt>
      <trkpt lat="43.48728" lon="0.93474">
        <ele>168.66</ele>
        <time>2015-05-21T12:58:06Z</time>
      </trkpt>
      <trkpt lat="43.4873" lon="0.93471">
        <ele>168.71</ele>
        <time>2015-05-21T12:58:21Z</time>
      </trkpt>
      <trkpt lat="43.48738" lon="0.93468">
        <ele>168.97</ele>
        <time>2015-05-21T12:58:40Z</time>
      </trkpt>
      <trkpt lat="43.4874" lon="0.93466">
        <ele>169.14</ele>
        <time>2015-05-21T12:59:03Z</time>
      </trkpt>
      <trkpt lat="43.48743" lon="0.93467">
        <ele>169.19</ele>
        <time>2015-05-21T12:59:27Z</time>
      </trkpt>
      <trkpt lat="43.48746" lon="0.93463">
        <ele>168.91</ele>
        <time>2015-05-21T12:59:37Z</time>
      </trkpt>
      <trkpt lat="43.48751" lon="0.93457">
        <ele>168.99</ele>
        <time>2015-05-21T12:59:42Z</time>
      </trkpt>
      <trkpt lat="43.48761" lon="0.9344">
        <ele>169.27</ele>
        <time>2015-05-21T12:59:59Z</time>
      </trkpt>
      <trkpt lat="43.48777" lon="0.93425">
        <ele>169.71</ele>
        <time>2015-05-21T13:00:20Z</time>
      </trkpt>
      <trkpt lat="43.488" lon="0.9342">
        <ele>170.06</ele>
        <time>2015-05-21T13:00:42Z</time>
      </trkpt>
      <trkpt lat="43.4881" lon="0.93415">
        <ele>169.75</ele>
        <time>2015-05-21T13:00:55Z</time>
      </trkpt>
      <trkpt lat="43.48833" lon="0.93407">
        <ele>169.52</ele>
        <time>2015-05-21T13:01:14Z</time>
      </trkpt>
      <trkpt lat="43.48852" lon="0.934">
        <ele>169.25</ele>
        <time>2015-05-21T13:01:32Z</time>
      </trkpt>
      <trkpt lat="43.48871" lon="0.93393">
        <ele>168.95</ele>
        <time>2015-05-21T13:01:49Z</time>
      </trkpt>
      <trkpt lat="43.48875" lon="0.93391">
        <ele>168.96</ele>
        <time>2015-05-21T13:01:54Z</time>
      </trkpt>
      <trkpt lat="43.4888" lon="0.93389">
        <ele>168.94</ele>
        <time>2015-05-21T13:01:58Z</time>
      </trkpt>
      <trkpt lat="43.48891" lon="0.93385">
        <ele>168.97</ele>
        <time>2015-05-21T13:02:06Z</time>
      </trkpt>
      <trkpt lat="43.4891" lon="0.9338">
        <ele>169.65</ele>
        <time>2015-05-21T13:02:22Z</time>
      </trkpt>
      <trkpt lat="43.48926" lon="0.93375">
        <ele>169.47</ele>
        <time>2015-05-21T13:02:36Z</time>
      </trkpt>
      <trkpt lat="43.48936" lon="0.9337">
        <ele>169.44</ele>
        <time>2015-05-21T13:02:52Z</time>
      </trkpt>
      <trkpt lat="43.48928" lon="0.9335">
        <ele>169.61</ele>
        <time>2015-05-21T13:03:11Z</time>
      </trkpt>
      <trkpt lat="43.48926" lon="0.93345">
        <ele>169.48</ele>
        <time>2015-05-21T13:03:16Z</time>
      </trkpt>
      <trkpt lat="43.48923" lon="0.93326">
        <ele>169.36</ele>
        <time>2015-05-21T13:03:31Z</time>
      </trkpt>
      <trkpt lat="43.48923" lon="0.93314">
        <ele>169.44</ele>
        <time>2015-05-21T13:03:39Z</time>
      </trkpt>
      <trkpt lat="43.48931" lon="0.93293">
        <ele>169.3</ele>
        <time>2015-05-21T13:03:55Z</time>
      </trkpt>
      <trkpt lat="43.48942" lon="0.93274">
        <ele>169.04</ele>
        <time>2015-05-21T13:04:12Z</time>
      </trkpt>
      <trkpt lat="43.48954" lon="0.93251">
        <ele>168.86</ele>
        <time>2015-05-21T13:04:28Z</time>
      </trkpt>
      <trkpt lat="43.48962" lon="0.93235">
        <ele>169.02</ele>
        <time>2015-05-21T13:04:41Z</time>
      </trkpt>
      <trkpt lat="43.48967" lon="0.93219">
        <ele>168.81</ele>
        <time>2015-05-21T13:04:55Z</time>
      </trkpt>
      <trkpt lat="43.48968" lon="0.93215">
        <ele>169.76</ele>
        <time>2015-05-21T13:05:13Z</time>
      </trkpt>
    </trkseg>
  </trk>
</gpx>